Data for 08/08/2010

Time Sea-Level Adjusted Pressure Absolute Pressure Temperature Relative Humidity Dew Point Precipitation   
(mb) (inHg) (mb) (inHg) (C) (F) (%) (C) (F) (mm) (in)
00:01 1017 30.03 846 24.98 10.5 51 77 6.6 43.9 10.88 0.428
00:02 1017 30.03 846 24.98 10.5 50.9 77 6.7 44 10.86 0.428
00:03 1017 30.03 846 24.98 10.4 50.7 77 6.6 43.9 10.77 0.424
00:04 1017 30.03 846 24.98 10.3 50.6 77 6.6 43.8 10.77 0.424
00:05 1017 30.03 846 24.98 10.3 50.6 77 6.5 43.7 10.72 0.422
00:06 1017 30.03 846 24.98 10.5 50.8 76 6.5 43.6 10.82 0.426
00:07 1017 30.03 846 24.98 10.6 51.1 76 6.5 43.8 10.98 0.432
00:08 1017 30.03 846 24.98 10.6 51 76 6.6 43.9 10.93 0.43
00:09 1017 30.03 846 24.98 10.4 50.8 77 6.5 43.8 10.82 0.426
00:10 1017 30.03 846 24.98 10.4 50.8 77 6.5 43.7 10.81 0.426
00:11 1017 30.03 846 24.98 10.4 50.7 77 6.5 43.7 10.81 0.426
00:12 1017 30.03 846 24.98 10.3 50.5 77 6.5 43.8 10.67 0.42
00:13 1017 30.03 846 24.98 10.1 50.2 78 6.6 43.8 10.47 0.412
00:14 1017 30.03 846 24.98 10 49.9 79 6.5 43.7 10.36 0.408
00:15 1017 30.03 846 24.98 9.9 49.8 79 6.5 43.7 10.26 0.404
00:16 1017 30.03 846 24.98 9.9 49.7 79 6.4 43.6 10.21 0.402
00:17 1017 30.03 846 24.98 10 49.9 78 6.4 43.5 10.31 0.406
00:18 1017 30.03 847 25.01 10 49.9 78 6.4 43.5 10.31 0.406
00:19 1017 30.03 847 25.01 9.8 49.7 79 6.4 43.5 10.21 0.402
00:20 1017 30.03 847 25.01 9.7 49.5 80 6.4 43.5 10.09 0.397
00:21 1017 30.03 847 25.01 9.7 49.5 79 6.4 43.4 10.14 0.399
00:22 1017 30.03 847 25.01 9.9 49.9 78 6.4 43.5 10.3 0.406
00:23 1017 30.03 847 25.01 10 50.1 78 6.4 43.5 10.36 0.408
00:24 1017 30.03 847 25.01 10.1 50.1 78 6.4 43.6 10.4 0.409
00:25 1017 30.03 846 24.98 10 49.9 78 6.4 43.5 10.34 0.407
00:26 1017 30.03 846 24.98 9.7 49.5 80 6.4 43.5 10.05 0.396
00:27 1017 30.03 847 25.01 9.4 48.9 82 6.4 43.6 9.76 0.384
00:28 1017 30.03 847 25.01 9.3 48.7 82 6.3 43.4 9.72 0.383
00:29 1017 30.03 847 25.01 9.5 49.1 80 6.3 43.4 9.9 0.39
00:30 1017 30.03 847 25.01 9.6 49.3 80 6.3 43.4 9.95 0.392
00:31 1017 30.03 847 25.01 9.7 49.4 80 6.3 43.4 9.98 0.393
00:32 1017 30.03 847 25.01 9.7 49.4 80 6.3 43.4 10 0.394
00:33 1017 30.03 847 25.01 9.7 49.4 80 6.3 43.4 9.99 0.393
00:34 1017 30.03 847 25.01 9.7 49.5 80 6.4 43.5 10.06 0.396
00:35 1017 30.03 847 25.01 9.8 49.6 79 6.4 43.5 10.1 0.398
00:36 1017 30.03 847 25.01 9.9 49.8 79 6.3 43.4 10.18 0.401
00:37 1017 30.03 847 25.01 10 50 78 6.4 43.5 10.27 0.404
00:38 1017 30.03 847 25.01 10 50.1 78 6.4 43.6 10.32 0.406
00:39 1017 30.03 847 25.01 10 50 78 6.4 43.5 10.32 0.406
00:40 1017 30.03 847 25.01 10 50 78 6.4 43.5 10.29 0.405
00:41 1017 30.03 847 25.01 9.9 49.9 78 6.3 43.4 10.28 0.405
00:42 1017 30.03 847 25.01 9.9 49.9 79 6.4 43.5 10.25 0.404
00:43 1017 30.03 847 25.01 9.9 49.8 79 6.4 43.6 10.24 0.403
00:44 1017 30.03 847 25.01 9.9 49.7 79 6.4 43.6 10.2 0.402
00:45 1017 30.03 847 25.01 9.9 49.8 79 6.4 43.6 10.26 0.404
00:46 1017 30.03 847 25.01 10 49.9 79 6.5 43.7 10.29 0.405
00:47 1017 30.03 847 25.01 10 50 79 6.5 43.7 10.34 0.407
00:48 1017 30.03 847 25.01 10 50 79 6.5 43.7 10.38 0.409
00:49 1017 30.03 847 25.01 10.1 50.1 78 6.5 43.7 10.37 0.408
00:50 1017 30.03 847 25.01 10.1 50.2 78 6.5 43.7 10.46 0.412
00:51 1017 30.03 847 25.01 10.2 50.3 78 6.6 43.8 10.49 0.413
00:52 1017 30.03 847 25.01 10.1 50.2 79 6.6 43.9 10.46 0.412
00:53 1017 30.03 847 25.01 10 49.9 79 6.5 43.7 10.37 0.408
00:54 1017 30.03 847 25.01 10 49.9 79 6.5 43.7 10.32 0.406
00:55 1017 30.03 847 25.01 10.1 50.1 78 6.4 43.6 10.4 0.409
00:56 1017 30.03 847 25.01 10.3 50.5 77 6.4 43.5 10.64 0.419
00:57 1017 30.03 847 25.01 10.5 50.9 76 6.4 43.5 10.84 0.427
00:58 1017 30.03 847 25.01 10.6 51 75 6.4 43.6 10.94 0.431
00:59 1017 30.03 847 25.01 10.6 51 76 6.5 43.7 10.89 0.429
01:00 1017 30.03 847 25.01 10.5 50.9 76 6.5 43.7 10.8 0.425
01:01 1017 30.03 847 25.01 10.4 50.8 76 6.5 43.7 10.8 0.425
01:02 1017 30.03 847 25.01 10.4 50.8 76 6.4 43.6 10.77 0.424
01:03 1017 30.03 847 25.01 10.5 50.9 76 6.5 43.6 10.85 0.427
01:04 1017 30.03 847 25.01 10.5 50.8 76 6.5 43.6 10.85 0.427
01:05 1017 30.03 847 25.01 10.4 50.7 76 6.4 43.5 10.76 0.424
01:06 1017 30.03 847 25.01 10.4 50.7 76 6.4 43.5 10.73 0.422
01:07 1017 30.03 847 25.01 10.4 50.8 75 6.3 43.3 10.78 0.424
01:08 1017 30.03 847 25.01 10.5 51 75 6.3 43.3 10.86 0.428
01:09 1017 30.03 847 25.01 10.6 51 75 6.3 43.3 10.89 0.429
01:10 1017 30.03 847 25.01 10.6 51 75 6.3 43.3 10.89 0.429
01:11 1017 30.03 847 25.01 10.5 50.9 75 6.3 43.3 10.89 0.429
01:12 1017 30.03 847 25.01 10.4 50.8 76 6.3 43.4 10.76 0.424
01:13 1017 30.03 847 25.01 10.3 50.6 76 6.3 43.4 10.71 0.422
01:14 1017 30.03 847 25.01 10.3 50.5 77 6.4 43.5 10.62 0.418
01:15 1017 30.03 847 25.01 10.2 50.4 77 6.4 43.4 10.58 0.417
01:16 1017 30.03 847 25.01 10.2 50.4 77 6.3 43.4 10.58 0.417
01:17 1017 30.03 847 25.01 10.3 50.5 77 6.3 43.4 10.62 0.418
01:18 1017 30.03 847 25.01 10.3 50.5 76 6.3 43.4 10.65 0.419
01:19 1017 30.03 847 25.01 10.3 50.5 76 6.3 43.3 10.69 0.421
01:20 1017 30.03 847 25.01 10.3 50.6 76 6.2 43.2 10.71 0.422
01:21 1017 30.03 847 25.01 10.4 50.7 76 6.3 43.4 10.76 0.424
01:22 1017 30.03 847 25.01 10.4 50.8 75 6.3 43.3 10.8 0.425
01:23 1017 30.03 847 25.01 10.5 51 75 6.3 43.4 10.89 0.429
01:24 1017 30.03 846 24.98 10.6 51 75 6.3 43.4 10.92 0.43
01:25 1017 30.03 846 24.98 10.5 51 75 6.3 43.4 10.89 0.429
01:26 1017 30.03 846 24.98 10.5 50.9 75 6.3 43.4 10.85 0.427
01:27 1017 30.03 846 24.98 10.4 50.7 76 6.3 43.4 10.77 0.424
01:28 1017 30.03 846 24.98 10.2 50.4 76 6.2 43.2 10.62 0.418
01:29 1017 30.03 846 24.98 10.2 50.3 76 6.2 43.1 10.57 0.416
01:30 1017 30.03 846 24.98 10.3 50.5 75 6.1 43 10.62 0.418
01:31 1017 30.03 846 24.98 10.3 50.6 75 6.1 42.9 10.63 0.419
01:32 1017 30.03 846 24.98 10.4 50.6 75 6.1 42.9 10.71 0.422
01:33 1017 30.03 846 24.98 10.4 50.7 74 6 42.9 10.71 0.422
01:34 1017 30.03 846 24.98 10.4 50.6 75 6.1 43 10.58 0.417
01:35 1017 30.03 846 24.98 10.2 50.3 76 6.1 42.9 10.44 0.411
01:36 1017 30.03 846 24.98 10 50 76 6 42.9 10.31 0.406
01:37 1017 30.03 846 24.98 9.9 49.7 77 5.9 42.7 10.2 0.402
01:38 1017 30.03 846 24.98 9.7 49.5 77 5.9 42.7 10.06 0.396
01:39 1017 30.03 846 24.98 9.5 49.2 78 5.8 42.5 9.91 0.39
01:40 1017 30.03 846 24.98 9.5 49.1 78 5.9 42.6 9.9 0.39
01:41 1017 30.03 846 24.98 9.5 49.1 78 5.8 42.5 9.85 0.388
01:42 1017 30.03 846 24.98 9.6 49.4 77 5.8 42.4 10.07 0.396
01:43 1017 30.03 846 24.98 9.9 49.7 76 5.8 42.4 10.21 0.402
01:44 1017 30.03 846 24.98 10 50 75 5.8 42.5 10.35 0.407
01:45 1017 30.03 846 24.98 10.1 50.1 75 5.9 42.7 10.4 0.409
01:46 1017 30.03 846 24.98 10.1 50.1 75 5.9 42.7 10.41 0.41
01:47 1017 30.03 846 24.98 10.1 50.2 75 5.9 42.6 10.44 0.411
01:48 1017 30.03 846 24.98 10.1 50.2 75 5.9 42.6 10.39 0.409
01:49 1017 30.03 846 24.98 10.1 50.2 75 5.9 42.6 10.45 0.411
01:50 1017 30.03 846 24.98 10.2 50.3 74 5.8 42.5 10.46 0.412
01:51 1017 30.03 846 24.98 10.2 50.3 74 5.8 42.4 10.51 0.414
01:52 1017 30.03 846 24.98 10.3 50.5 73 5.7 42.3 10.56 0.416
01:53 1017 30.03 846 24.98 10.3 50.5 73 5.7 42.3 10.59 0.417
01:54 1017 30.03 846 24.98 10.4 50.7 73 5.7 42.3 10.67 0.42
01:55 1017 30.03 846 24.98 10.5 50.8 73 5.8 42.5 10.73 0.422
01:56 1017 30.03 846 24.98 10.4 50.7 73 5.8 42.5 10.69 0.421
01:57 1017 30.03 846 24.98 10.4 50.7 73 5.8 42.4 10.68 0.42
01:58 1017 30.03 846 24.98 10.4 50.7 73 5.8 42.4 10.68 0.42
01:59 1017 30.03 846 24.98 10.3 50.6 73 5.8 42.4 10.64 0.419
02:00 1017 30.03 846 24.98 10.3 50.5 74 5.8 42.4 10.56 0.416
02:01 1017 30.03 846 24.98 10.2 50.4 74 5.8 42.4 10.53 0.415
02:02 1017 30.03 846 24.98 10.2 50.3 75 5.9 42.6 10.48 0.413
02:03 1017 30.03 846 24.98 10 50 76 5.9 42.7 10.4 0.409
02:04 1017 30.03 846 24.98 9.7 49.5 77 6 42.8 10.12 0.398
02:05 1017 30.03 846 24.98 9.4 49 78 5.9 42.6 9.89 0.389
02:06 1017 30.03 846 24.98 9.4 48.9 78 5.8 42.5 9.8 0.386
02:07 1017 30.03 846 24.98 9.4 49 78 5.8 42.4 9.77 0.385
02:08 1017 30.03 846 24.98 9.4 49 77 5.7 42.3 9.75 0.384
02:09 1017 30.03 846 24.98 9.2 48.5 79 5.7 42.2 9.57 0.377
02:10 1017 30.03 846 24.98 9 48.1 80 5.7 42.2 9.43 0.371
02:11 1017 30.03 846 24.98 9 48.2 80 5.7 42.3 9.36 0.369
02:12 1017 30.03 846 24.98 9.1 48.4 79 5.7 42.3 9.47 0.373
02:13 1017 30.03 846 24.98 9.1 48.4 79 5.6 42.2 9.43 0.371
02:14 1017 30.03 846 24.98 9.1 48.4 79 5.6 42.1 9.49 0.374
02:15 1017 30.03 846 24.98 9 48.2 79 5.6 42.1 9.37 0.369
02:16 1017 30.03 846 24.98 8.8 47.9 80 5.6 42.1 9.24 0.364
02:17 1017 30.03 846 24.98 8.8 47.8 81 5.6 42.1 9.14 0.36
02:18 1017 30.03 846 24.98 8.7 47.6 81 5.6 42 9.03 0.356
02:19 1017 30.03 846 24.98 8.6 47.4 81 5.5 41.9 8.94 0.352
02:20 1017 30.03 846 24.98 8.5 47.4 81 5.5 41.9 8.89 0.35
02:21 1017 30.03 846 24.98 8.5 47.3 81 5.4 41.7 8.89 0.35
02:22 1017 30.03 846 24.98 8.5 47.3 81 5.5 41.9 8.91 0.351
02:23 1017 30.03 846 24.98 8.7 47.6 80 5.4 41.7 9.07 0.357
02:24 1017 30.03 846 24.98 8.9 48 79 5.5 41.8 9.25 0.364
02:25 1017 30.03 846 24.98 9.1 48.4 78 5.5 42 9.38 0.369
02:26 1017 30.03 846 24.98 9.2 48.6 78 5.5 41.9 9.41 0.37
02:27 1017 30.03 846 24.98 9.3 48.7 78 5.6 42 9.46 0.372
02:28 1017 30.03 846 24.98 9.4 48.9 77 5.6 42 9.54 0.376
02:29 1017 30.03 846 24.98 9.5 49.2 75 5.4 41.7 9.69 0.381
02:30 1017 30.03 846 24.98 9.7 49.4 75 5.4 41.8 9.85 0.388
02:31 1017 30.03 846 24.98 9.7 49.4 75 5.5 41.9 9.84 0.387
02:32 1017 30.03 846 24.98 9.6 49.2 75 5.5 41.8 9.76 0.384
02:33 1017 30.03 846 24.98 9.3 48.7 77 5.4 41.7 9.62 0.379
02:34 1017 30.03 846 24.98 8.9 47.9 78 5.3 41.5 9.2 0.362
02:35 1017 30.03 846 24.98 8.4 47 81 5.4 41.6 8.78 0.346
02:36 1017 30.03 846 24.98 8.2 46.8 83 5.4 41.8 8.57 0.337
02:37 1017 30.03 846 24.98 8.2 46.7 83 5.5 41.9 8.51 0.335
02:38 1017 30.03 846 24.98 8.2 46.8 83 5.5 41.8 8.53 0.336
02:39 1017 30.03 846 24.98 8.3 46.9 82 5.4 41.8 8.65 0.341
02:40 1017 30.03 846 24.98 8.4 47.1 82 5.5 41.8 8.71 0.343
02:41 1017 30.03 846 24.98 8.5 47.3 82 5.6 42 8.82 0.347
02:42 1017 30.03 846 24.98 8.6 47.4 81 5.6 42 8.9 0.35
02:43 1017 30.03 846 24.98 8.7 47.7 80 5.6 42 9.04 0.356
02:44 1017 30.03 846 24.98 9 48.1 79 5.5 42 9.23 0.363
02:45 1017 30.03 846 24.98 9.1 48.5 78 5.6 42.1 9.43 0.371
02:46 1017 30.03 846 24.98 9.3 48.7 78 5.6 42 9.54 0.376
02:47 1017 30.03 846 24.98 9.2 48.6 78 5.6 42.1 9.57 0.377
02:48 1017 30.03 846 24.98 9.1 48.4 78 5.6 42 9.53 0.375
02:49 1017 30.03 846 24.98 9 48.3 79 5.5 42 9.44 0.372
02:50 1017 30.03 846 24.98 9 48.2 79 5.5 42 9.42 0.371
02:51 1017 30.03 846 24.98 9 48.1 79 5.5 42 9.34 0.368
02:52 1017 30.03 846 24.98 9.3 48.8 77 5.6 42 9.54 0.376
02:53 1017 30.03 846 24.98 9.6 49.2 76 5.5 41.9 9.81 0.386
02:54 1017 30.03 846 24.98 9.5 49 76 5.5 41.9 9.84 0.387
02:55 1017 30.03 846 24.98 9.6 49.2 76 5.5 41.9 9.9 0.39
02:56 1017 30.03 846 24.98 9.6 49.4 75 5.5 41.9 9.95 0.392
02:57 1017 30.03 846 24.98 9.7 49.5 75 5.6 42 10.06 0.396
02:58 1017 30.03 846 24.98 10 50 74 5.5 42 10.29 0.405
02:59 1017 30.03 846 24.98 10.2 50.4 73 5.5 41.9 10.5 0.413
03:00 1017 30.03 846 24.98 10.3 50.6 72 5.4 41.8 10.6 0.417
03:01 1017 30.03 846 24.98 10.3 50.5 72 5.4 41.7 10.53 0.415
03:02 1017 30.03 846 24.98 10 50.1 73 5.4 41.7 10.31 0.406
03:03 1017 30.03 846 24.98 9.8 49.6 74 5.4 41.7 10.08 0.397
03:04 1017 30.03 846 24.98 9.4 48.9 76 5.3 41.6 9.76 0.384
03:05 1017 30.03 846 24.98 9 48.2 76 5.1 41.2 9.47 0.373
03:06 1017 30.03 846 24.98 8.7 47.6 78 5.1 41.2 9.18 0.361
03:07 1017 30.03 846 24.98 8.4 47.2 80 5.2 41.4 8.96 0.353
03:08 1017 30.03 846 24.98 8.5 47.2 80 5.3 41.5 8.94 0.352
03:09 1017 30.03 846 24.98 8.5 47.3 80 5.3 41.5 8.93 0.352
03:10 1017 30.03 846 24.98 8.4 47.2 80 5.2 41.3 8.86 0.349
03:11 1017 30.03 846 24.98 8.3 47 81 5.2 41.3 8.73 0.344
03:12 1017 30.03 846 24.98 8.2 46.8 81 5.2 41.3 8.64 0.34
03:13 1017 30.03 846 24.98 8.2 46.8 81 5.1 41.2 8.64 0.34
03:14 1017 30.03 846 24.98 8.3 46.9 80 5.1 41.3 8.65 0.341
03:15 1017 30.03 846 24.98 8.4 47.1 80 5.2 41.4 8.74 0.344
03:16 1017 30.03 846 24.98 8.7 47.7 79 5.3 41.5 8.98 0.354
03:17 1017 30.03 846 24.98 9.1 48.3 77 5.3 41.5 9.25 0.364
03:18 1017 30.03 846 24.98 9.4 48.9 76 5.3 41.6 9.53 0.375
03:19 1017 30.03 846 24.98 9.6 49.3 75 5.4 41.7 9.71 0.382
03:20 1017 30.03 846 24.98 9.8 49.6 74 5.4 41.7 9.85 0.388
03:21 1017 30.03 846 24.98 9.9 49.7 74 5.4 41.7 9.98 0.393
03:22 1017 30.03 846 24.98 10 49.9 73 5.4 41.8 10.1 0.398
03:23 1017 30.03 846 24.98 10 50 73 5.5 41.9 10.17 0.4
03:24 1017 30.03 846 24.98 10 50 74 5.5 41.9 10.19 0.401
03:25 1017 30.03 846 24.98 9.9 49.8 74 5.5 41.9 10.19 0.401
03:26 1017 30.03 846 24.98 9.8 49.7 75 5.5 42 10.12 0.398
03:27 1017 30.03 846 24.98 9.8 49.6 75 5.5 41.8 10.09 0.397
03:28 1017 30.03 846 24.98 9.8 49.6 74 5.4 41.8 10.14 0.399
03:29 1017 30.03 846 24.98 10 50 73 5.5 41.9 10.31 0.406
03:30 1017 30.03 846 24.98 10.3 50.5 72 5.4 41.8 10.54 0.415
03:31 1017 30.03 846 24.98 10.6 51.1 70 5.5 41.8 10.82 0.426
03:32 1017 30.03 846 24.98 11 51.7 68 5.4 41.7 11.17 0.44
03:33 1017 30.03 846 24.98 11.3 52.4 67 5.4 41.8 11.5 0.453
03:34 1017 30.03 846 24.98 11.5 52.6 67 5.6 42.1 11.69 0.46
03:35 1017 30.03 846 24.98 11.5 52.8 67 5.6 42.1 11.78 0.464
03:36 1017 30.03 846 24.98 11.6 52.9 66 5.5 41.9 11.85 0.467
03:37 1017 30.03 846 24.98 11.8 53.2 66 5.7 42.2 12 0.472
03:38 1017 30.03 846 24.98 11.7 53 67 5.7 42.3 11.96 0.471
03:39 1017 30.03 846 24.98 11.5 52.8 67 5.7 42.2 11.84 0.466
03:40 1017 30.03 846 24.98 11.5 52.6 67 5.6 42 11.76 0.463
03:41 1017 30.03 846 24.98 11.4 52.5 67 5.5 42 11.77 0.463
03:42 1017 30.03 846 24.98 11.4 52.5 68 5.7 42.2 11.68 0.46
03:43 1017 30.03 846 24.98 11.2 52.1 69 5.7 42.3 11.57 0.456
03:44 1017 30.03 846 24.98 11 51.7 70 5.7 42.3 11.36 0.447
03:45 1017 30.03 846 24.98 10.7 51.2 71 5.7 42.2 11.11 0.437
03:46 1017 30.03 846 24.98 10.5 51 72 5.7 42.2 10.93 0.43
03:47 1017 30.03 846 24.98 10.4 50.7 72 5.6 42.1 10.78 0.424
03:48 1017 30.03 846 24.98 10.3 50.5 73 5.6 42.1 10.64 0.419
03:49 1017 30.03 846 24.98 10.2 50.3 73 5.6 42.2 10.55 0.415
03:50 1017 30.03 846 24.98 10.1 50.2 74 5.6 42.1 10.47 0.412
03:51 1017 30.03 846 24.98 10 49.9 74 5.6 42.2 10.33 0.407
03:52 1017 30.03 846 24.98 9.9 49.7 75 5.6 42.1 10.21 0.402
03:53 1017 30.03 846 24.98 9.7 49.4 76 5.6 42.1 10.05 0.396
03:54 1017 30.03 846 24.98 9.5 49.1 76 5.5 41.9 9.95 0.392
03:55 1017 30.03 846 24.98 9.5 49 76 5.5 41.9 9.85 0.388
03:56 1017 30.03 846 24.98 9.5 49.1 75 5.4 41.6 9.89 0.389
03:57 1017 30.03 846 24.98 9.8 49.6 74 5.4 41.8 10.11 0.398
03:58 1017 30.03 846 24.98 10 50 73 5.4 41.8 10.28 0.405
03:59 1017 30.03 846 24.98 10.2 50.3 72 5.4 41.8 10.49 0.413
04:00 1017 30.03 846 24.98 10.4 50.7 72 5.5 41.9 10.69 0.421
04:01 1017 30.03 846 24.98 10.5 51 71 5.5 41.9 10.85 0.427
04:02 1017 30.03 846 24.98 10.7 51.3 70 5.6 42 10.96 0.431
04:03 1017 30.03 846 24.98 10.8 51.4 70 5.6 42.1 10.99 0.433
04:04 1017 30.03 846 24.98 10.8 51.4 70 5.6 42.2 11.03 0.434
04:05 1017 30.03 846 24.98 10.7 51.2 71 5.7 42.2 10.98 0.432
04:06 1017 30.03 846 24.98 10.5 51 72 5.6 42.2 10.85 0.427
04:07 1017 30.03 846 24.98 10.4 50.8 72 5.7 42.2 10.75 0.423
04:08 1017 30.03 846 24.98 10.3 50.5 72 5.6 42 10.64 0.419
04:09 1017 30.03 846 24.98 10.3 50.5 72 5.5 41.9 10.61 0.418
04:10 1017 30.03 846 24.98 10.3 50.6 72 5.5 41.9 10.64 0.419
04:11 1017 30.03 846 24.98 10.3 50.5 72 5.5 41.8 10.61 0.418
04:12 1017 30.03 846 24.98 10.3 50.5 72 5.4 41.7 10.59 0.417
04:13 1017 30.03 846 24.98 10.4 50.7 71 5.4 41.8 10.66 0.42
04:14 1017 30.03 846 24.98 10.3 50.5 72 5.5 41.8 10.59 0.417
04:15 1017 30.03 846 24.98 10.1 50.2 73 5.5 41.9 10.45 0.411
04:16 1017 30.03 846 24.98 10 49.9 74 5.5 41.9 10.33 0.407
04:17 1017 30.03 846 24.98 9.8 49.6 74 5.4 41.7 10.18 0.401
04:18 1017 30.03 847 25.01 9.7 49.4 75 5.4 41.8 10 0.394
04:19 1017 30.03 847 25.01 9.5 49.1 76 5.5 41.8 9.88 0.389
04:20 1017 30.03 847 25.01 9.4 48.9 77 5.5 41.9 9.79 0.385
04:21 1017 30.03 847 25.01 9.4 48.9 76 5.4 41.8 9.75 0.384
04:22 1017 30.03 847 25.01 9.3 48.8 77 5.5 41.8 9.69 0.381
04:23 1017 30.03 847 25.01 9.3 48.7 77 5.4 41.7 9.67 0.381
04:24 1017 30.03 847 25.01 9.4 48.9 76 5.4 41.7 9.77 0.385
04:25 1017 30.03 847 25.01 9.5 49 76 5.4 41.8 9.84 0.387
04:26 1017 30.03 847 25.01 9.4 49 76 5.4 41.8 9.8 0.386
04:27 1017 30.03 847 25.01 9.4 48.8 76 5.4 41.7 9.73 0.383
04:28 1017 30.03 847 25.01 9.2 48.6 76 5.3 41.6 9.66 0.38
04:29 1017 30.03 847 25.01 9.2 48.5 77 5.4 41.7 9.56 0.376
04:30 1017 30.03 847 25.01 9.1 48.3 78 5.4 41.7 9.5 0.374
04:31 1017 30.03 847 25.01 9 48.2 78 5.4 41.6 9.41 0.37
04:32 1017 30.03 847 25.01 8.9 48 78 5.3 41.6 9.36 0.369
04:33 1017 30.03 847 25.01 8.9 48 78 5.3 41.6 9.25 0.364
04:34 1017 30.03 847 25.01 8.8 47.9 79 5.3 41.6 9.19 0.362
04:35 1017 30.03 847 25.01 8.7 47.7 79 5.4 41.7 9.15 0.36
04:36 1017 30.03 847 25.01 8.7 47.7 80 5.4 41.8 9.11 0.359
04:37 1017 30.03 847 25.01 8.7 47.6 79 5.3 41.6 9.08 0.357
04:38 1017 30.03 847 25.01 8.8 47.9 79 5.4 41.7 9.16 0.361
04:39 1017 30.03 847 25.01 9.1 48.3 78 5.4 41.8 9.3 0.366
04:40 1017 30.03 847 25.01 9.1 48.4 76 5.2 41.4 9.45 0.372
04:41 1017 30.03 847 25.01 8.9 48 80 5.6 42 9.26 0.365
04:42 1017 30.03 847 25.01 8.8 47.8 80 5.6 42 9.16 0.361
04:43 1017 30.03 847 25.01 8.9 47.9 79 5.4 41.7 9.16 0.361
04:44 1017 30.03 847 25.01 9.1 48.4 77 5.3 41.6 9.33 0.367
04:45 1017 30.03 847 25.01 9.3 48.7 76 5.2 41.4 9.53 0.375
04:46 1017 30.03 847 25.01 9.1 48.5 76 5.1 41.2 9.46 0.372
04:47 1017 30.03 847 25.01 8.9 48 77 5.1 41.1 9.23 0.363
04:48 1017 30.03 847 25.01 8.6 47.6 78 5 40.9 9.03 0.356
04:49 1018 30.06 847 25.01 8.4 47.2 79 4.9 40.9 8.78 0.346
04:50 1017 30.03 847 25.01 8.3 46.9 79 4.8 40.7 8.63 0.34
04:51 1017 30.03 847 25.01 8.1 46.6 80 4.9 40.8 8.48 0.334
04:52 1018 30.06 847 25.01 8.1 46.6 80 4.9 40.8 8.47 0.333
04:53 1018 30.06 847 25.01 8.2 46.7 80 4.9 40.8 8.51 0.335
04:54 1018 30.06 847 25.01 8.3 47 79 4.9 40.9 8.66 0.341
04:55 1018 30.06 847 25.01 8.5 47.4 78 5 40.9 8.83 0.348
04:56 1018 30.06 847 25.01 8.6 47.6 77 4.9 40.8 8.98 0.354
04:57 1018 30.06 847 25.01 8.7 47.7 78 5.1 41.3 9.05 0.356
04:58 1018 30.06 847 25.01 9.1 48.4 75 4.9 40.8 9.46 0.372
04:59 1018 30.06 847 25.01 9.3 48.7 74 4.9 40.8 9.57 0.377
05:00 1018 30.06 847 25.01 9.4 48.9 73 4.9 40.8 9.63 0.379
05:01 1018 30.06 847 25.01 9.6 49.2 73 5 41 9.77 0.385
05:02 1018 30.06 847 25.01 9.7 49.4 72 5 41 9.89 0.389
05:03 1018 30.06 847 25.01 9.5 49.1 73 5 41 9.71 0.382
05:04 1018 30.06 847 25.01 9.4 48.9 74 5 40.9 9.64 0.38
05:05 1018 30.06 847 25.01 9.2 48.5 75 4.9 40.9 9.45 0.372
05:06 1018 30.06 847 25.01 8.9 48.1 76 4.9 40.8 9.25 0.364
05:07 1018 30.06 847 25.01 8.8 47.8 76 4.9 40.7 9.09 0.358
05:08 1018 30.06 847 25.01 8.6 47.5 77 4.9 40.8 8.93 0.352
05:09 1018 30.06 847 25.01 8.4 47 78 4.8 40.7 8.8 0.346
05:10 1018 30.06 847 25.01 8.2 46.7 80 4.9 40.8 8.64 0.34
05:11 1018 30.06 847 25.01 8.1 46.5 80 4.9 40.8 8.52 0.335
05:12 1018 30.06 847 25.01 8.1 46.5 80 4.9 40.8 8.47 0.333
05:13 1018 30.06 847 25.01 8.2 46.8 80 4.9 40.8 8.63 0.34
05:14 1018 30.06 847 25.01 8.4 47.1 79 5 40.9 8.71 0.343
05:15 1018 30.06 847 25.01 8.4 47.2 78 4.9 40.8 8.75 0.344
05:16 1018 30.06 847 25.01 8.4 47.2 79 4.9 40.9 8.74 0.344
05:17 1018 30.06 847 25.01 8.4 47 78 4.8 40.6 8.7 0.343
05:18 1018 30.06 847 25.01 8.2 46.8 79 4.9 40.8 8.59 0.338
05:19 1018 30.06 847 25.01 8.1 46.6 80 4.9 40.8 8.48 0.334
05:20 1018 30.06 847 25.01 8.1 46.5 81 5 41 8.47 0.333
05:21 1018 30.06 847 25.01 8.2 46.7 80 5 40.9 8.52 0.335
05:22 1018 30.06 847 25.01 8.3 47 80 5 41.1 8.68 0.342
05:23 1017 30.03 847 25.01 8.6 47.4 79 5.1 41.2 8.93 0.352
05:24 1017 30.03 847 25.01 8.8 47.8 78 5.2 41.4 9.11 0.359
05:25 1017 30.03 847 25.01 8.8 47.9 78 5.3 41.5 9.16 0.361
05:26 1017 30.03 847 25.01 8.7 47.7 79 5.3 41.5 9.16 0.361
05:27 1017 30.03 847 25.01 8.8 47.8 79 5.3 41.6 9.16 0.361
05:28 1017 30.03 847 25.01 8.8 47.8 79 5.4 41.7 9.12 0.359
05:29 1018 30.06 847 25.01 8.7 47.7 79 5.4 41.7 9.08 0.357
05:30 1017 30.03 847 25.01 8.7 47.7 80 5.4 41.7 9.07 0.357
05:31 1017 30.03 847 25.01 8.7 47.7 80 5.4 41.7 9.05 0.356
05:32 1018 30.06 847 25.01 8.7 47.7 79 5.4 41.7 9.09 0.358
05:33 1018 30.06 847 25.01 8.7 47.6 79 5.3 41.6 9.04 0.356
05:34 1018 30.06 847 25.01 8.6 47.4 80 5.3 41.6 9.02 0.355
05:35 1018 30.06 847 25.01 8.5 47.4 80 5.3 41.5 8.94 0.352
05:36 1018 30.06 847 25.01 8.5 47.4 80 5.3 41.5 8.91 0.351
05:37 1018 30.06 847 25.01 8.6 47.4 80 5.3 41.6 8.95 0.352
05:38 1018 30.06 847 25.01 8.6 47.5 80 5.3 41.6 8.99 0.354
05:39 1018 30.06 847 25.01 8.7 47.7 79 5.3 41.6 9.01 0.355
05:40 1018 30.06 847 25.01 8.7 47.6 79 5.3 41.5 9 0.354
05:41 1018 30.06 847 25.01 8.6 47.5 79 5.3 41.5 8.98 0.354
05:42 1018 30.06 847 25.01 8.4 47.2 80 5.2 41.4 8.85 0.348
05:43 1018 30.06 847 25.01 8.2 46.8 81 5.2 41.4 8.61 0.339
05:44 1017 30.03 847 25.01 8.1 46.5 82 5.2 41.3 8.44 0.332
05:45 1017 30.03 847 25.01 7.9 46.2 82 5.1 41.1 8.28 0.326
05:46 1018 30.06 847 25.01 7.8 46 83 5.1 41.1 8.12 0.32
05:47 1018 30.06 847 25.01 7.6 45.6 84 5 41 8.01 0.315
05:48 1018 30.06 847 25.01 7.6 45.7 84 5 41.1 7.98 0.314
05:49 1018 30.06 847 25.01 7.6 45.7 84 5 41.1 7.95 0.313
05:50 1018 30.06 847 25.01 7.5 45.6 84 5 41 7.93 0.312
05:51 1018 30.06 847 25.01 7.4 45.4 84 5 40.9 7.81 0.307
05:52 1018 30.06 847 25.01 7.3 45.1 85 4.9 40.9 7.68 0.302
05:53 1018 30.06 847 25.01 7.1 44.8 86 4.9 40.8 7.52 0.296
05:54 1018 30.06 847 25.01 7 44.6 87 4.9 40.8 7.38 0.291
05:55 1018 30.06 847 25.01 6.9 44.5 87 4.9 40.8 7.34 0.289
05:56 1018 30.06 847 25.01 6.9 44.5 87 4.9 40.9 7.27 0.286
05:57 1018 30.06 847 25.01 6.9 44.5 87 4.9 40.9 7.32 0.288
05:58 1018 30.06 847 25.01 7 44.5 87 4.9 40.9 7.27 0.286
05:59 1018 30.06 847 25.01 6.9 44.5 87 4.9 40.9 7.28 0.287
06:00 1018 30.06 847 25.01 6.9 44.4 87 4.9 40.8 7.27 0.286
06:01 1018 30.06 847 25.01 6.9 44.4 87 4.8 40.7 7.22 0.284
06:02 1018 30.06 847 25.01 6.7 44.1 87 4.7 40.5 7.12 0.28
06:03 1018 30.06 847 25.01 6.6 43.9 87 4.7 40.4 7.05 0.278
06:04 1018 30.06 847 25.01 6.5 43.7 88 4.6 40.3 6.914 0.272
06:05 1018 30.06 847 25.01 6.4 43.6 88 4.6 40.3 6.807 0.268
06:06 1018 30.06 847 25.01 6.3 43.4 89 4.6 40.3 6.716 0.264
06:07 1018 30.06 847 25.01 6.3 43.3 89 4.6 40.3 6.699 0.264
06:08 1018 30.06 847 25.01 6.3 43.4 89 4.7 40.4 6.671 0.263
06:09 1018 30.06 847 25.01 6.3 43.4 89 4.6 40.2 6.71 0.264
06:10 1018 30.06 847 25.01 6.3 43.3 89 4.6 40.3 6.632 0.261
06:11 1018 30.06 847 25.01 6.3 43.3 89 4.6 40.4 6.61 0.26
06:12 1018 30.06 847 25.01 6.3 43.3 90 4.8 40.6 6.672 0.263
06:13 1018 30.06 847 25.01 6.4 43.6 90 4.9 40.7 6.797 0.268
06:14 1018 30.06 847 25.01 6.6 43.9 89 4.9 40.8 6.967 0.274
06:15 1018 30.06 847 25.01 6.8 44.2 87 4.7 40.5 7.04 0.277
06:16 1018 30.06 847 25.01 6.8 44.2 88 4.9 40.8 7.05 0.278
06:17 1018 30.06 847 25.01 6.9 44.4 87 4.9 40.9 7.11 0.28
06:18 1018 30.06 847 25.01 7 44.7 86 4.9 40.9 7.21 0.284
06:19 1018 30.06 847 25.01 7.1 44.8 86 4.9 40.8 7.28 0.287
06:20 1018 30.06 847 25.01 7.2 44.9 85 4.8 40.6 7.31 0.288
06:21 1018 30.06 847 25.01 7.1 44.7 85 4.7 40.5 7.29 0.287
06:22 1018 30.06 847 25.01 6.9 44.5 85 4.6 40.4 7.21 0.284
06:23 1018 30.06 847 25.01 6.8 44.3 86 4.7 40.5 7.16 0.282
06:24 1018 30.06 847 25.01 6.9 44.3 86 4.6 40.3 7.12 0.28
06:25 1018 30.06 847 25.01 6.7 44 87 4.6 40.3 6.998 0.276
06:26 1018 30.06 847 25.01 6.6 43.9 87 4.5 40.2 6.901 0.272
06:27 1018 30.06 847 25.01 6.5 43.7 87 4.5 40.2 6.788 0.267
06:28 1018 30.06 847 25.01 6.4 43.5 88 4.5 40.2 6.698 0.264
06:29 1018 30.06 847 25.01 6.3 43.4 88 4.6 40.2 6.659 0.262
06:30 1018 30.06 847 25.01 6.3 43.4 89 4.6 40.3 6.71 0.264
06:31 1018 30.06 847 25.01 6.4 43.5 88 4.6 40.2 6.687 0.263
06:32 1018 30.06 847 25.01 6.3 43.4 88 4.5 40.1 6.67 0.263
06:33 1018 30.06 847 25.01 6.3 43.4 88 4.5 40.1 6.626 0.261
06:34 1018 30.06 847 25.01 6.4 43.4 88 4.6 40.2 6.7 0.264
06:35 1018 30.06 847 25.01 6.4 43.5 88 4.6 40.3 6.706 0.264
06:36 1018 30.06 847 25.01 6.4 43.5 88 4.6 40.2 6.735 0.265
06:37 1018 30.06 847 25.01 6.5 43.7 88 4.6 40.3 6.82 0.269
06:38 1018 30.06 847 25.01 6.5 43.8 88 4.6 40.3 6.849 0.27
06:39 1018 30.06 847 25.01 6.5 43.6 88 4.5 40.2 6.809 0.268
06:40 1018 30.06 847 25.01 6.4 43.5 88 4.5 40.1 6.73 0.265
06:41 1018 30.06 847 25.01 6.3 43.4 88 4.5 40.1 6.741 0.265
06:42 1018 30.06 847 25.01 6.4 43.5 88 4.5 40.2 6.764 0.266
06:43 1018 30.06 847 25.01 6.5 43.6 88 4.6 40.3 6.799 0.268
06:44 1018 30.06 847 25.01 6.6 43.8 88 4.7 40.5 6.895 0.271
06:45 1018 30.06 847 25.01 6.7 44 88 4.8 40.6 7.04 0.277
06:46 1018 30.06 847 25.01 6.8 44.2 87 4.9 40.8 7.15 0.281
06:47 1018 30.06 847 25.01 6.9 44.4 87 5 40.9 7.3 0.287
06:48 1018 30.06 847 25.01 7 44.6 87 5 41.1 7.42 0.292
06:49 1018 30.06 847 25.01 7.1 44.8 87 5.1 41.2 7.48 0.294
06:50 1018 30.06 847 25.01 7.2 44.9 87 5.2 41.4 7.56 0.298
06:51 1018 30.06 847 25.01 7.3 45.1 87 5.3 41.6 7.66 0.302
06:52 1018 30.06 847 25.01 7.4 45.3 87 5.4 41.8 7.79 0.307
06:53 1018 30.06 847 25.01 7.5 45.5 87 5.5 41.8 7.92 0.312
06:54 1018 30.06 847 25.01 7.7 45.8 86 5.5 41.9 8.05 0.317
06:55 1018 30.06 847 25.01 7.8 46 86 5.6 42.1 8.21 0.323
06:56 1018 30.06 847 25.01 7.9 46.3 85 5.7 42.2 8.36 0.329
06:57 1018 30.06 847 25.01 8.1 46.6 85 5.7 42.3 8.51 0.335
06:58 1018 30.06 847 25.01 8.3 46.9 84 5.8 42.4 8.62 0.339
06:59 1018 30.06 847 25.01 8.4 47.1 84 5.8 42.5 8.76 0.345
07:00 1018 30.06 847 25.01 8.5 47.2 83 5.8 42.5 8.89 0.35
07:01 1018 30.06 847 25.01 8.5 47.3 83 5.8 42.5 8.96 0.353
07:02 1018 30.06 847 25.01 8.6 47.4 83 5.9 42.5 8.99 0.354
07:03 1018 30.06 847 25.01 8.8 47.8 81 5.8 42.4 9.16 0.361
07:04 1018 30.06 847 25.01 9 48.2 80 5.8 42.5 9.38 0.369
07:05 1018 30.06 847 25.01 9.2 48.6 80 6 42.8 9.52 0.375
07:06 1018 30.06 847 25.01 9.3 48.7 79 5.9 42.6 9.65 0.38
07:07 1018 30.06 847 25.01 9.4 48.9 79 6 42.8 9.81 0.386
07:08 1018 30.06 847 25.01 9.4 49 80 6.2 43.1 9.94 0.391
07:09 1018 30.06 847 25.01 9.5 49 79 6.1 42.9 9.98 0.393
07:10 1018 30.06 847 25.01 9.5 49 79 6 42.7 9.97 0.393
07:11 1018 30.06 847 25.01 9.5 49.2 79 6.1 43 9.99 0.393
07:12 1018 30.06 847 25.01 9.6 49.3 79 6.2 43.1 10.08 0.397
07:13 1018 30.06 847 25.01 9.7 49.4 80 6.4 43.4 10.07 0.396
07:14 1018 30.06 847 25.01 9.7 49.4 78 6.1 43.1 10.12 0.398
07:15 1018 30.06 847 25.01 9.8 49.6 79 6.4 43.5 10.25 0.404
07:16 1018 30.06 847 25.01 10 49.9 79 6.5 43.6 10.45 0.411
07:17 1018 30.06 847 25.01 10.1 50.1 79 6.6 43.9 10.68 0.42
07:18 1018 30.06 847 25.01 10.3 50.5 77 6.4 43.5 10.89 0.429
07:19 1018 30.06 847 25.01 10.3 50.6 77 6.4 43.6 11.07 0.436
07:20 1018 30.06 847 25.01 10.3 50.6 76 6.4 43.5 11.2 0.441
07:21 1018 30.06 847 25.01 10.4 50.6 77 6.4 43.6 11.21 0.441
07:22 1018 30.06 847 25.01 10.3 50.6 78 6.7 44 11.12 0.438
07:23 1018 30.06 847 25.01 10.3 50.6 78 6.7 44 11.14 0.439
07:24 1018 30.06 847 25.01 10.4 50.7 78 6.7 44.1 11.14 0.439
07:25 1018 30.06 847 25.01 10.4 50.8 78 6.8 44.3 11.18 0.44
07:26 1018 30.06 847 25.01 10.5 50.9 78 6.9 44.4 11.2 0.441
07:27 1018 30.06 847 25.01 10.5 50.9 79 7.1 44.8 11.24 0.443
07:28 1018 30.06 847 25.01 10.6 51.1 78 7 44.6 11.3 0.445
07:29 1018 30.06 847 25.01 10.7 51.3 77 7 44.5 11.39 0.448
07:30 1018 30.06 847 25.01 10.8 51.5 77 6.9 44.4 11.54 0.454
07:31 1018 30.06 847 25.01 10.9 51.7 77 7.1 44.8 11.71 0.461
07:32 1018 30.06 847 25.01 11 51.9 75 6.9 44.4 11.82 0.465
07:33 1018 30.06 847 25.01 11.1 52 76 7 44.6 11.97 0.471
07:34 1018 30.06 847 25.01 11.3 52.3 75 7.1 44.7 12.08 0.476
07:35 1018 30.06 847 25.01 11.4 52.4 75 7.1 44.8 12.23 0.481
07:36 1018 30.06 847 25.01 11.5 52.6 75 7.3 45.1 12.29 0.484
07:37 1018 30.06 847 25.01 11.5 52.7 77 7.6 45.7 12.41 0.489
07:38 1018 30.06 847 25.01 11.6 52.9 77 7.8 46.1 12.47 0.491
07:39 1018 30.06 847 25.01 11.7 53.1 78 7.9 46.3 12.53 0.493
07:40 1018 30.06 847 25.01 11.7 53.1 75 7.4 45.4 12.5 0.492
07:41 1018 30.06 847 25.01 11.8 53.2 74 7.4 45.3 12.44 0.49
07:42 1018 30.06 847 25.01 11.8 53.2 75 7.6 45.6 12.42 0.489
07:43 1018 30.06 847 25.01 11.8 53.3 77 8.1 46.5 12.44 0.49
07:44 1018 30.06 847 25.01 12 53.5 75 7.6 45.7 12.55 0.494
07:45 1018 30.06 847 25.01 12.1 53.7 75 7.8 46.1 12.62 0.497
07:46 1018 30.06 848 25.04 12.1 53.9 71 7.1 44.8 12.72 0.501
07:47 1018 30.06 848 25.04 12.3 54.1 73 7.6 45.7 12.86 0.506
07:48 1018 30.06 848 25.04 12.4 54.3 72 7.6 45.6 13.01 0.512
07:49 1018 30.06 848 25.04 12.5 54.5 73 7.8 46 13.19 0.519
07:50 1018 30.06 848 25.04 12.7 54.8 73 8 46.5 13.31 0.524
07:51 1018 30.06 848 25.04 12.8 55 74 8.3 46.9 13.46 0.53
07:52 1018 30.06 848 25.04 12.9 55.3 70 7.6 45.7 13.58 0.535
07:53 1018 30.06 848 25.04 13.1 55.5 70 7.7 45.9 13.68 0.539
07:54 1018 30.06 848 25.04 13.2 55.7 70 7.9 46.2 13.82 0.544
07:55 1018 30.06 848 25.04 13.3 55.9 69 7.8 46 13.93 0.548
07:56 1018 30.06 848 25.04 13.4 56.1 69 7.8 46 14.01 0.552
07:57 1018 30.06 848 25.04 13.5 56.2 67 7.5 45.5 14.08 0.554
07:58 1018 30.06 848 25.04 13.6 56.4 64 7 44.6 14.15 0.557
07:59 1018 30.06 848 25.04 13.6 56.6 65 7.3 45.1 14.26 0.561
08:00 1018 30.06 848 25.04 13.8 56.8 65 7.3 45.1 14.26 0.561
08:01 1018 30.06 848 25.04 13.9 56.9 66 7.7 45.8 14.38 0.566
08:02 1018 30.06 848 25.04 13.9 57 64 7.3 45.1 14.44 0.569
08:03 1018 30.06 848 25.04 14 57.2 67 8 46.4 14.51 0.571
08:04 1018 30.06 848 25.04 14.1 57.3 65 7.7 45.8 14.59 0.574
08:05 1018 30.06 848 25.04 14.1 57.4 64 7.4 45.3 14.57 0.574
08:06 1018 30.06 848 25.04 14.1 57.4 66 8 46.3 14.66 0.577
08:07 1019 30.09 848 25.04 14.2 57.5 64 7.6 45.7 14.67 0.578
08:08 1019 30.09 848 25.04 14.2 57.5 63 7.4 45.3 14.68 0.578
08:09 1018 30.06 848 25.04 14.2 57.6 66 8.1 46.5 14.73 0.58
08:10 1019 30.09 848 25.04 14.3 57.7 63 7.3 45.2 14.77 0.581
08:11 1019 30.09 848 25.04 14.3 57.7 65 7.8 46.1 14.82 0.583
08:12 1019 30.09 848 25.04 14.3 57.8 65 8 46.3 14.86 0.585
08:13 1019 30.09 848 25.04 14.4 58 67 8.4 47.1 14.98 0.59
08:14 1019 30.09 848 25.04 14.5 58.2 66 8.2 46.8 15.06 0.593
08:15 1019 30.09 848 25.04 14.6 58.3 67 8.7 47.7 15.15 0.596
08:16 1019 30.09 848 25.04 14.7 58.4 63 7.8 46 15.23 0.6
08:17 1019 30.09 848 25.04 14.7 58.4 61 7.3 45.1 15.19 0.598
08:18 1019 30.09 848 25.04 14.7 58.4 64 7.9 46.2 15.23 0.6
08:19 1019 30.09 848 25.04 14.7 58.5 63 7.9 46.1 15.27 0.601
08:20 1019 30.09 848 25.04 14.9 58.7 62 7.8 46 15.43 0.607
08:21 1019 30.09 848 25.04 15 58.9 67 9 48.1 15.48 0.609
08:22 1019 30.09 848 25.04 15 59 59 7.1 44.8 15.57 0.613
08:23 1019 30.09 848 25.04 15.1 59.2 63 8.1 46.6 15.68 0.617
08:24 1019 30.09 848 25.04 15.3 59.5 62 8 46.4 15.82 0.623
08:25 1019 30.09 848 25.04 15.3 59.5 63 8.5 47.2 15.89 0.626
08:26 1019 30.09 848 25.04 15.3 59.6 57 7 44.7 15.89 0.626
08:27 1019 30.09 848 25.04 15.4 59.7 57 7.1 44.7 15.95 0.628
08:28 1019 30.09 848 25.04 15.4 59.7 57 7 44.6 15.93 0.627
08:29 1019 30.09 848 25.04 15.3 59.6 60 7.8 46 15.87 0.625
08:30 1019 30.09 848 25.04 15.3 59.6 59 7.4 45.3 15.87 0.625
08:31 1019 30.09 848 25.04 15.4 59.8 57 7.1 44.8 15.9 0.626
08:32 1019 30.09 848 25.04 15.4 59.7 58 7.4 45.3 15.81 0.622
08:33 1019 30.09 848 25.04 15.4 59.7 56 6.8 44.2 15.85 0.624
08:34 1019 30.09 848 25.04 15.4 59.7 58 7.3 45.1 15.84 0.624
08:35 1019 30.09 848 25.04 15.5 59.8 59 7.6 45.7 15.89 0.626
08:36 1019 30.09 848 25.04 15.5 59.9 59 7.7 45.8 15.88 0.625
08:37 1019 30.09 848 25.04 15.5 60 57 7.2 44.9 15.96 0.628
08:38 1019 30.09 848 25.04 15.6 60 55 6.6 43.9 16 0.63
08:39 1019 30.09 848 25.04 15.5 59.9 56 6.9 44.5 15.97 0.629
08:40 1019 30.09 848 25.04 15.5 59.9 60 7.8 46 16.02 0.631
08:41 1019 30.09 848 25.04 15.7 60.2 57 7.3 45.1 16.15 0.636
08:42 1019 30.09 848 25.04 15.8 60.5 57 7.4 45.3 16.37 0.644
08:43 1019 30.09 848 25.04 16 60.9 56 7.5 45.4 16.51 0.65
08:44 1019 30.09 848 25.04 16.1 61 55 7.2 44.9 16.61 0.654
08:45 1019 30.09 848 25.04 16 60.9 60 8.4 47.1 16.51 0.65
08:46 1019 30.09 848 25.04 16 60.8 59 8 46.3 16.55 0.652
08:47 1019 30.09 848 25.04 16.1 60.9 57 7.7 45.9 16.59 0.653
08:48 1019 30.09 848 25.04 16.3 61.3 56 7.7 45.8 16.66 0.656
08:49 1019 30.09 848 25.04 16.4 61.6 56 7.6 45.7 16.76 0.66
08:50 1019 30.09 848 25.04 16.6 61.9 55 7.6 45.6 16.83 0.663
08:51 1019 30.09 848 25.04 16.7 62 54 7.5 45.6 16.93 0.667
08:52 1019 30.09 848 25.04 16.6 61.8 56 7.8 46.1 16.84 0.663
08:53 1019 30.09 848 25.04 16.5 61.6 56 7.6 45.8 16.74 0.659
08:54 1019 30.09 848 25.04 16.4 61.6 54 7.3 45.1 16.86 0.664
08:55 1019 30.09 848 25.04 16.3 61.4 53 6.9 44.4 16.8 0.661
08:56 1019 30.09 848 25.04 16.3 61.3 56 7.7 45.8 16.74 0.659
08:57 1019 30.09 848 25.04 16.5 61.7 55 7.6 45.8 16.9 0.665
08:58 1019 30.09 848 25.04 16.7 62 53 7.1 44.7 17.04 0.671
08:59 1019 30.09 848 25.04 16.7 62.1 52 7 44.6 17.08 0.672
09:00 1019 30.09 848 25.04 16.7 62 52 7 44.6 17.02 0.67
09:01 1019 30.09 848 25.04 16.7 62 54 7.4 45.3 17.02 0.67
09:02 1019 30.09 848 25.04 16.8 62.3 56 8.1 46.5 17.12 0.674
09:03 1019 30.09 848 25.04 17 62.6 52 7.2 45 17.18 0.676
09:04 1019 30.09 848 25.04 17.2 62.9 55 8.1 46.5 17.19 0.677
09:05 1019 30.09 848 25.04 17.2 63 59 9.2 48.5 17.36 0.683
09:06 1019 30.09 848 25.04 17.3 63.1 53 7.8 46.1 17.54 0.691
09:07 1019 30.09 848 25.04 17.3 63.1 53 7.7 45.9 17.55 0.691
09:08 1019 30.09 848 25.04 17.3 63.1 54 8.1 46.5 17.43 0.686
09:09 1019 30.09 848 25.04 17.3 63.1 53 7.7 45.8 17.34 0.683
09:10 1019 30.09 848 25.04 17.3 63.1 57 8.6 47.6 17.29 0.681
09:11 1019 30.09 848 25.04 17.3 63.1 53 7.8 46 17.35 0.683
09:12 1019 30.09 848 25.04 17.3 63.1 56 8.5 47.4 17.42 0.686
09:13 1019 30.09 848 25.04 17.2 63 54 8 46.4 17.35 0.683
09:14 1019 30.09 848 25.04 17.2 62.9 53 7.7 45.9 17.36 0.683
09:15 1019 30.09 848 25.04 17.1 62.8 54 7.8 46 17.33 0.682
09:16 1019 30.09 848 25.04 17.1 62.8 59 9.2 48.6 17.39 0.685
09:17 1019 30.09 848 25.04 17.2 63 55 8.3 46.9 17.45 0.687
09:18 1019 30.09 848 25.04 17.2 63 55 8.1 46.6 17.54 0.691
09:19 1019 30.09 848 25.04 17.3 63.1 53 7.6 45.8 17.6 0.693
09:20 1019 30.09 848 25.04 17.3 63.1 57 8.8 47.8 17.62 0.694
09:21 1019 30.09 848 25.04 17.4 63.3 57 8.8 47.8 17.74 0.698
09:22 1019 30.09 848 25.04 17.4 63.4 56 8.8 47.8 17.78 0.7
09:23 1019 30.09 848 25.04 17.3 63.1 52 7.5 45.5 17.63 0.694
09:24 1019 30.09 848 25.04 17.2 62.9 54 7.8 46 17.53 0.69
09:25 1019 30.09 848 25.04 17.1 62.8 53 7.6 45.7 17.49 0.689
09:26 1019 30.09 848 25.04 17.2 62.9 53 7.5 45.5 17.52 0.69
09:27 1019 30.09 848 25.04 17.2 63 54 8 46.4 17.58 0.692
09:28 1019 30.09 848 25.04 17.3 63.1 54 8 46.5 17.65 0.695
09:29 1019 30.09 848 25.04 17.4 63.3 52 7.5 45.6 17.8 0.701
09:30 1019 30.09 848 25.04 17.6 63.6 54 8.3 47 17.89 0.704
09:31 1019 30.09 848 25.04 17.8 64 53 8.2 46.8 18.16 0.715
09:32 1019 30.09 848 25.04 18.1 64.5 52 8 46.5 18.43 0.726
09:33 1019 30.09 848 25.04 18.3 64.9 49 7.6 45.8 18.67 0.735
09:34 1019 30.09 848 25.04 18.5 65.3 52 8.7 47.6 18.92 0.745
09:35 1019 30.09 848 25.04 18.7 65.7 51 8.4 47 19.11 0.752
09:36 1019 30.09 848 25.04 18.8 65.8 50 8.4 47.1 18.9 0.744
09:37 1019 30.09 848 25.04 18.6 65.5 52 8.8 47.8 18.6 0.732
09:38 1019 30.09 848 25.04 18.5 65.2 50 8 46.4 18.39 0.724
09:39 1019 30.09 848 25.04 18.4 65 49 7.6 45.7 18.43 0.726
09:40 1019 30.09 848 25.04 18.4 65.1 50 7.9 46.3 18.53 0.73
09:41 1019 30.09 848 25.04 18.3 64.9 53 8.6 47.5 18.56 0.731
09:42 1019 30.09 848 25.04 18.2 64.8 49 7.3 45.1 18.58 0.731
09:43 1019 30.09 848 25.04 18.4 65 48 7.3 45.2 18.66 0.735
09:44 1019 30.09 848 25.04 18.4 65 49 7.7 45.9 18.69 0.736
09:45 1019 30.09 848 25.04 18.5 65.3 53 8.7 47.7 18.79 0.74
09:46 1019 30.09 848 25.04 18.3 64.9 48 7.2 45 18.63 0.733
09:47 1019 30.09 848 25.04 18.2 64.7 49 7.3 45.1 18.48 0.728
09:48 1019 30.09 848 25.04 18.3 64.9 48 7.2 45 18.43 0.726
09:49 1019 30.09 848 25.04 18.3 64.9 51 8 46.4 18.52 0.729
09:50 1019 30.09 848 25.04 18.3 65 49 7.6 45.6 18.64 0.734
09:51 1019 30.09 848 25.04 18.4 65.1 47 7.1 44.9 18.79 0.74
09:52 1019 30.09 848 25.04 18.4 65 48 7.3 45.1 18.82 0.741
09:53 1019 30.09 848 25.04 18.5 65.3 55 9.5 49.1 18.93 0.745
09:54 1019 30.09 848 25.04 18.7 65.7 49 7.8 46 19.19 0.756
09:55 1019 30.09 848 25.04 18.7 65.6 48 7.6 45.6 19.21 0.756
09:56 1019 30.09 848 25.04 18.6 65.4 49 7.8 46 19.09 0.752
09:57 1019 30.09 848 25.04 18.6 65.5 48 7.5 45.5 19.03 0.749
09:58 1019 30.09 848 25.04 18.5 65.3 48 7.5 45.5 18.9 0.744
09:59 1019 30.09 848 25.04 18.4 65.2 51 8.1 46.6 18.88 0.743
10:00 1019 30.09 848 25.04 18.4 65.2 49 7.7 45.9 18.84 0.742
10:01 1019 30.09 848 25.04 18.4 65.2 48 7.3 45.2 18.81 0.741
10:02 1019 30.09 848 25.04 18.6 65.4 53 8.9 48 18.92 0.745
10:03 1019 30.09 848 25.04 18.8 65.9 49 7.9 46.3 19.15 0.754
10:04 1019 30.09 848 25.04 18.9 66 48 7.8 46 19.27 0.759
10:05 1019 30.09 848 25.04 18.9 66.1 47 7.3 45.2 19.33 0.761
10:06 1019 30.09 848 25.04 18.9 66.1 48 7.8 46 19.29 0.759
10:07 1019 30.09 848 25.04 19 66.1 48 7.8 46 19.3 0.76
10:08 1019 30.09 848 25.04 19 66.2 50 8.6 47.5 19.43 0.765
10:09 1019 30.09 848 25.04 19 66.3 46 7.4 45.3 19.4 0.764
10:10 1019 30.09 848 25.04 18.9 66 48 7.7 45.9 19.24 0.757
10:11 1019 30.09 848 25.04 18.7 65.7 48 7.7 45.9 19.09 0.752
10:12 1019 30.09 848 25.04 18.6 65.4 49 7.8 46.1 18.99 0.748
10:13 1019 30.09 848 25.04 18.6 65.5 53 9 48.1 19 0.748
10:14 1019 30.09 848 25.04 18.7 65.6 49 7.7 45.9 19.06 0.75
10:15 1019 30.09 848 25.04 18.7 65.7 51 8.4 47.1 19.05 0.75
10:16 1019 30.09 848 25.04 18.8 65.8 47 7.3 45.1 19.1 0.752
10:17 1019 30.09 848 25.04 18.7 65.7 45 6.7 44 19.04 0.75
10:18 1019 30.09 848 25.04 18.8 65.8 48 7.7 45.8 19.03 0.749
10:19 1019 30.09 848 25.04 18.8 65.8 46 7.1 44.8 19.03 0.749
10:20 1019 30.09 848 25.04 18.7 65.6 47 7.2 45 19.04 0.75
10:21 1019 30.09 848 25.04 18.7 65.7 49 7.9 46.1 19.09 0.752
10:22 1019 30.09 848 25.04 18.8 65.9 46 7.2 44.9 19.14 0.754
10:23 1019 30.09 848 25.04 18.9 65.9 47 7.4 45.3 19.16 0.754
10:24 1019 30.09 848 25.04 18.9 66 51 8.7 47.7 19.21 0.756
10:25 1019 30.09 848 25.04 19.1 66.3 45 6.9 44.3 19.31 0.76
10:26 1019 30.09 848 25.04 19.2 66.5 49 8.2 46.8 19.37 0.763
10:27 1019 30.09 848 25.04 19.2 66.6 47 7.6 45.7 19.47 0.767
10:28 1019 30.09 848 25.04 19.3 66.8 46 7.4 45.4 19.5 0.768
10:29 1019 30.09 848 25.04 19.5 67 45 7.3 45.1 19.54 0.769
10:30 1019 30.09 848 25.04 19.5 67.1 50 8.8 47.8 19.61 0.772
10:31 1019 30.09 848 25.04 19.7 67.5 47 8.3 47 19.82 0.78
10:32 1019 30.09 848 25.04 19.9 67.8 47 8.4 47.1 20.04 0.789
10:33 1019 30.09 848 25.04 20 68.1 44 7.4 45.3 20.07 0.79
10:34 1019 30.09 848 25.04 20.1 68.2 43 7.4 45.3 20.08 0.791
10:35 1019 30.09 848 25.04 20.2 68.3 47 8.6 47.5 20.16 0.794
10:36 1019 30.09 848 25.04 20.2 68.4 43 7.4 45.3 20.4 0.803
10:37 1019 30.09 848 25.04 20.4 68.7 47 8.7 47.7 20.61 0.811
10:38 1019 30.09 848 25.04 20.6 69 44 8 46.4 20.77 0.818
10:39 1019 30.09 848 25.04 20.5 69 43 7.6 45.7 20.84 0.82
10:40 1019 30.09 848 25.04 20.4 68.7 46 8.4 47.1 20.85 0.821
10:41 1019 30.09 848 25.04 20.4 68.8 45 8.3 46.9 20.88 0.822
10:42 1019 30.09 848 25.04 20.6 69.1 41 7.2 45 20.85 0.821
10:43 1019 30.09 848 25.04 20.5 69 47 8.9 48 20.73 0.816
10:44 1019 30.09 848 25.04 20.4 68.7 43 7.5 45.4 20.59 0.811
10:45 1019 30.09 848 25.04 20.2 68.4 46 8.5 47.3 20.44 0.805
10:46 1019 30.09 848 25.04 20.1 68.2 42 6.8 44.2 20.37 0.802
10:47 1019 30.09 848 25.04 20 68 48 8.7 47.6 20.34 0.801
10:48 1019 30.09 848 25.04 20 67.9 43 7.1 44.8 20.26 0.798
10:49 1019 30.09 848 25.04 20 68.1 43 7.1 44.8 20.3 0.799
10:50 1019 30.09 848 25.04 19.9 67.9 48 8.7 47.7 20.23 0.796
10:51 1019 30.09 848 25.04 19.8 67.7 46 8.1 46.5 20.21 0.796
10:52 1019 30.09 848 25.04 19.8 67.7 45 7.6 45.7 20.21 0.796
10:53 1019 30.09 848 25.04 19.8 67.7 46 8.1 46.5 20.19 0.795
10:54 1019 30.09 848 25.04 19.8 67.7 44 7.4 45.4 20.2 0.795
10:55 1019 30.09 848 25.04 19.7 67.5 43 6.9 44.5 20.13 0.793
10:56 1019 30.09 848 25.04 19.8 67.7 46 8 46.4 20.16 0.794
10:57 1019 30.09 848 25.04 19.9 67.8 42 6.9 44.3 20.26 0.798
10:58 1019 30.09 848 25.04 20 68.1 43 7.2 45 20.36 0.802
10:59 1019 30.09 848 25.04 20.1 68.2 48 8.9 48 20.49 0.807
11:00 1019 30.09 848 25.04 20.2 68.4 42 6.9 44.4 20.61 0.811
11:01 1019 30.09 848 25.04 20.2 68.4 42 7.1 44.8 20.52 0.808
11:02 1019 30.09 848 25.04 20.1 68.3 46 8.4 47.2 20.49 0.807
11:03 1019 30.09 848 25.04 20.3 68.5 41 6.8 44.3 20.62 0.812
11:04 1019 30.09 848 25.04 20.3 68.6 46 8.5 47.4 20.73 0.816
11:05 1019 30.09 848 25.04 20.4 68.8 43 7.5 45.4 20.82 0.82
11:06 1019 30.09 848 25.04 20.4 68.8 48 9.3 48.8 20.85 0.821
11:07 1019 30.09 848 25.04 20.5 68.8 44 7.8 46.1 20.81 0.819
11:08 1019 30.09 848 25.04 20.4 68.7 44 7.8 46.1 20.77 0.818
11:09 1019 30.09 848 25.04 20.4 68.8 42 7.3 45.2 20.72 0.816
11:10 1019 30.09 848 25.04 20.4 68.7 43 7.6 45.6 20.74 0.817
11:11 1019 30.09 848 25.04 20.5 68.8 41 6.9 44.4 20.81 0.819
11:12 1019 30.09 848 25.04 20.6 69.1 40 6.7 44 20.88 0.822
11:13 1019 30.09 848 25.04 20.7 69.3 41 7.2 45 21.04 0.828
11:14 1019 30.09 848 25.04 20.9 69.7 42 7.8 46 21.25 0.837
11:15 1019 30.09 848 25.04 21.1 69.9 42 7.7 45.9 21.44 0.844
11:16 1019 30.09 848 25.04 21.2 70.2 42 8.1 46.5 21.69 0.854
11:17 1019 30.09 848 25.04 21.4 70.5 44 8.8 47.8 21.96 0.865
11:18 1019 30.09 848 25.04 21.6 71 46 9.8 49.7 22.16 0.872
11:19 1019 30.09 848 25.04 21.8 71.2 41 8.1 46.5 22.12 0.871
11:20 1019 30.09 848 25.04 21.7 71.1 43 8.7 47.7 21.93 0.863
11:21 1019 30.09 848 25.04 21.7 71 44 9 48.1 21.8 0.858
11:22 1019 30.09 848 25.04 21.6 70.9 41 8.1 46.6 21.68 0.854
11:23 1019 30.09 848 25.04 21.6 70.9 40 7.7 45.9 21.68 0.854
11:24 1019 30.09 848 25.04 21.6 70.9 42 8.4 47 21.64 0.852
11:25 1019 30.09 848 25.04 21.5 70.7 39 7 44.5 21.47 0.845
11:26 1019 30.09 848 25.04 21.4 70.6 40 7.4 45.3 21.31 0.839
11:27 1019 30.09 848 25.04 21.4 70.5 42 8.1 46.6 21.31 0.839
11:28 1019 30.09 848 25.04 21.4 70.5 44 8.9 48.1 21.33 0.84
11:29 1019 30.09 848 25.04 21.4 70.6 38 6.8 44.2 21.43 0.844
11:30 1019 30.09 848 25.04 21.5 70.6 42 8.2 46.8 21.34 0.84
11:31 1019 30.09 848 25.04 21.4 70.6 38 6.7 44.1 21.27 0.837
11:32 1019 30.09 848 25.04 21.4 70.6 41 7.7 45.8 21.29 0.838
11:33 1019 30.09 848 25.04 21.5 70.7 40 7.4 45.3 21.38 0.842
11:34 1019 30.09 848 25.04 21.5 70.7 40 7.3 45.2 21.46 0.845
11:35 1019 30.09 848 25.04 21.5 70.7 37 6.5 43.6 21.5 0.846
11:36 1018 30.06 848 25.04 21.5 70.8 37 6.6 43.8 21.64 0.852
11:37 1019 30.09 848 25.04 21.6 70.8 39 7 44.7 21.76 0.857
11:38 1018 30.06 848 25.04 21.6 70.9 43 8.8 47.8 21.67 0.853
11:39 1018 30.06 848 25.04 21.5 70.8 46 9.6 49.4 21.63 0.852
11:40 1018 30.06 848 25.04 21.6 70.9 44 8.8 47.9 21.72 0.855
11:41 1018 30.06 848 25.04 21.7 71 42 8.4 47 21.76 0.857
11:42 1018 30.06 848 25.04 21.6 70.9 43 8.7 47.7 21.66 0.853
11:43 1018 30.06 848 25.04 21.6 70.8 49 10.5 50.9 21.66 0.853
11:44 1018 30.06 848 25.04 21.7 71 41 8 46.4 21.8 0.858
11:45 1018 30.06 848 25.04 21.7 71.1 38 6.9 44.5 21.79 0.858
11:46 1018 30.06 848 25.04 21.7 71 36 6.3 43.3 21.69 0.854
11:47 1018 30.06 848 25.04 21.6 70.9 38 7 44.6 21.7 0.854
11:48 1018 30.06 848 25.04 21.6 70.9 44 8.9 48 21.65 0.852
11:49 1018 30.06 848 25.04 21.5 70.7 38 7 44.5 21.56 0.849
11:50 1018 30.06 848 25.04 21.5 70.7 39 7.2 44.9 21.65 0.852
11:51 1018 30.06 848 25.04 21.5 70.7 38 6.8 44.3 21.66 0.853
11:52 1018 30.06 848 25.04 21.4 70.5 45 9.1 48.5 21.55 0.848
11:53 1018 30.06 848 25.04 21.5 70.6 44 9 48.1 21.67 0.853
11:54 1018 30.06 848 25.04 21.6 70.8 38 6.8 44.3 21.67 0.853
11:55 1018 30.06 848 25.04 21.5 70.7 42 8.1 46.7 21.63 0.852
11:56 1018 30.06 848 25.04 21.5 70.8 41 7.9 46.2 21.71 0.855
11:57 1018 30.06 848 25.04 21.7 71 38 6.8 44.2 21.89 0.862
11:58 1018 30.06 848 25.04 21.8 71.3 39 7.5 45.6 22.11 0.87
11:59 1018 30.06 847 25.01 22.1 71.7 38 7.4 45.4 22.3 0.878
12:00 1018 30.06 847 25.01 22.1 71.8 44 9.4 48.9 22.39 0.881
12:01 1018 30.06 847 25.01 22.2 71.9 38 7.5 45.6 22.43 0.883
12:02 1018 30.06 847 25.01 22.2 72 39 7.9 46.2 22.41 0.882
12:03 1018 30.06 847 25.01 22.3 72.1 40 8.3 47 22.3 0.878
12:04 1018 30.06 847 25.01 22.2 71.9 41 8.3 47 22.23 0.875
12:05 1018 30.06 847 25.01 22.1 71.7 43 9.1 48.4 22.28 0.877
12:06 1018 30.06 847 25.01 22 71.6 43 9 48.2 22.33 0.879
12:07 1018 30.06 847 25.01 22.1 71.8 42 8.6 47.6 22.43 0.883
12:08 1018 30.06 847 25.01 22.2 72 39 7.9 46.2 22.54 0.887
12:09 1018 30.06 847 25.01 22.4 72.3 37 7.2 44.9 22.55 0.888
12:10 1018 30.06 847 25.01 22.4 72.2 43 9.2 48.5 22.47 0.885
12:11 1018 30.06 847 25.01 22.3 72.1 42 8.9 48 22.4 0.882
12:12 1018 30.06 847 25.01 22.2 72 41 8.5 47.2 22.37 0.881
12:13 1018 30.06 847 25.01 22.2 72 42 9 48.2 22.33 0.879
12:14 1018 30.06 847 25.01 22.3 72.2 41 8.5 47.4 22.54 0.887
12:15 1018 30.06 847 25.01 22.4 72.3 46 10.2 50.4 22.72 0.894
12:16 1018 30.06 847 25.01 22.6 72.6 43 9.5 49.1 22.92 0.902
12:17 1018 30.06 847 25.01 22.8 73 43 9.8 49.6 23.02 0.906
12:18 1018 30.06 847 25.01 22.8 73.1 41 9 48.1 23.04 0.907
12:19 1018 30.06 847 25.01 22.8 73 42 9.4 49 22.95 0.904
12:20 1018 30.06 847 25.01 22.7 72.9 45 10.5 50.8 22.91 0.902
12:21 1018 30.06 847 25.01 22.9 73.1 36 7.3 45.2 23.02 0.906
12:22 1018 30.06 847 25.01 22.9 73.1 40 8.6 47.5 22.89 0.901
12:23 1018 30.06 847 25.01 22.8 73 37 7.6 45.7 22.89 0.901
12:24 1018 30.06 847 25.01 22.7 72.9 36 7 44.6 22.84 0.899
12:25 1018 30.06 847 25.01 22.7 72.8 35 6.6 43.9 22.78 0.897
12:26 1018 30.06 847 25.01 22.7 72.8 38 7.7 45.9 22.79 0.897
12:27 1018 30.06 847 25.01 22.6 72.7 38 7.7 45.8 22.8 0.898
12:28 1018 30.06 847 25.01 22.8 73 37 7.7 45.9 22.98 0.905
12:29 1018 30.06 847 25.01 22.8 73.1 37 7.7 45.9 23.08 0.909
12:30 1018 30.06 847 25.01 22.9 73.3 37 7.5 45.5 23.12 0.91
12:31 1018 30.06 847 25.01 23 73.4 39 8.6 47.5 23.16 0.912
12:32 1018 30.06 847 25.01 23.1 73.6 36 7.5 45.5 23.3 0.917
12:33 1018 30.06 847 25.01 23.1 73.6 43 10.2 50.4 23.29 0.917
12:34 1018 30.06 847 25.01 23.2 73.7 36 7.6 45.7 23.39 0.921
12:35 1018 30.06 847 25.01 23.3 73.9 35 7 44.6 23.45 0.923
12:36 1018 30.06 847 25.01 23.3 73.9 37 8.1 46.6 23.48 0.924
12:37 1018 30.06 847 25.01 23.3 74 39 8.6 47.6 23.42 0.922
12:38 1018 30.06 847 25.01 23.3 73.9 34 6.8 44.2 23.4 0.921
12:39 1018 30.06 847 25.01 23.2 73.8 36 7.4 45.4 23.33 0.919
12:40 1018 30.06 847 25.01 23.1 73.6 36 7.4 45.3 23.25 0.915
12:41 1018 30.06 847 25.01 23.1 73.6 36 7.3 45.1 23.42 0.922
12:42 1018 30.06 847 25.01 23.2 73.8 34 6.8 44.2 23.61 0.93
12:43 1018 30.06 847 25.01 23.4 74.2 39 9 48.2 23.84 0.939
12:44 1018 30.06 847 25.01 23.7 74.6 38 8.8 47.8 24.06 0.947
12:45 1018 30.06 847 25.01 23.7 74.6 42 10.1 50.2 24.06 0.947
12:46 1018 30.06 847 25.01 23.6 74.5 41 9.7 49.4 23.99 0.944
12:47 1018 30.06 847 25.01 23.6 74.5 35 7.6 45.7 23.98 0.944
12:48 1018 30.06 847 25.01 23.5 74.4 33 6.6 43.8 23.91 0.941
12:49 1018 30.06 847 25.01 23.5 74.3 42 10.2 50.4 23.88 0.94
12:50 1018 30.06 847 25.01 23.6 74.5 36 7.9 46.3 24.01 0.945
12:51 1018 30.06 847 25.01 23.7 74.7 31 6 42.8 24.01 0.945
12:52 1018 30.06 847 25.01 23.7 74.7 33 6.6 43.9 24.09 0.948
12:53 1018 30.06 847 25.01 23.8 74.8 36 7.9 46.1 24.17 0.952
12:54 1018 30.06 847 25.01 23.8 74.8 32 6.3 43.3 24.19 0.952
12:55 1018 30.06 847 25.01 23.9 75 34 7.3 45.2 24.39 0.96
12:56 1018 30.06 847 25.01 24 75.2 33 7 44.7 24.55 0.967
12:57 1018 30.06 847 25.01 24.2 75.5 32 6.9 44.4 24.76 0.975
12:58 1018 30.06 847 25.01 24.4 76 32 6.8 44.2 24.93 0.981
12:59 1018 30.06 847 25.01 24.5 76.1 36 8.6 47.5 24.78 0.976
13:00 1018 30.06 847 25.01 24.5 76.2 31 6.7 44.1 24.78 0.976
13:01 1018 30.06 847 25.01 24.4 76 31 6.6 43.8 24.7 0.972
13:02 1018 30.06 847 25.01 24.4 75.9 39 9.7 49.4 24.65 0.97
13:03 1018 30.06 847 25.01 24.4 76 31 6.6 43.9 24.78 0.976
13:04 1018 30.06 847 25.01 24.6 76.3 35 8.5 47.3 24.88 0.98
13:05 1018 30.06 847 25.01 24.7 76.5 33 7.7 45.8 24.88 0.98
13:06 1018 30.06 847 25.01 24.7 76.5 35 8.6 47.4 24.78 0.976
13:07 1018 30.06 847 25.01 24.7 76.4 33 7.7 45.9 24.79 0.976
13:08 1018 30.06 847 25.01 24.7 76.5 34 8.2 46.7 24.85 0.978
13:09 1018 30.06 847 25.01 24.8 76.7 28 5.3 41.6 24.88 0.98
13:10 1018 30.06 847 25.01 24.7 76.5 31 6.8 44.3 24.71 0.973
13:11 1018 30.06 847 25.01 24.7 76.4 30 6.2 43.2 24.75 0.974
13:12 1018 30.06 847 25.01 24.7 76.4 36 8.9 48 24.8 0.976
13:13 1018 30.06 847 25.01 24.8 76.6 29 5.7 42.3 24.97 0.983
13:14 1018 30.06 847 25.01 24.8 76.6 29 5.7 42.3 25.08 0.987
13:15 1018 30.06 847 25.01 24.7 76.5 32 7.4 45.3 25.1 0.988
13:16 1018 30.06 847 25.01 24.8 76.6 34 8 46.5 25.15 0.99
13:17 1018 30.06 847 25.01 24.9 76.8 30 6.5 43.7 25.35 0.998
13:18 1017 30.03 847 25.01 25 77 31 7.2 44.9 25.48 1.003
13:19 1017 30.03 847 25.01 25.1 77.2 28 5.5 41.9 25.51 1.004
13:20 1017 30.03 847 25.01 24.9 76.7 27 4.8 40.6 25.27 0.995
13:21 1017 30.03 847 25.01 24.7 76.5 31 6.6 43.9 25.17 0.991
13:22 1017 30.03 847 25.01 24.8 76.6 29 5.7 42.2 25.18 0.991
13:23 1017 30.03 847 25.01 25 76.9 33 7.8 46.1 25.39 1
13:24 1017 30.03 847 25.01 25.2 77.3 38 10.1 50.2 25.64 1.009
13:25 1017 30.03 847 25.01 25.3 77.5 36 9.2 48.6 25.68 1.011
13:26 1017 30.03 847 25.01 25.4 77.6 30 6.6 43.8 25.65 1.01
13:27 1017 30.03 846 24.98 25.2 77.4 32 7.6 45.7 25.41 1
13:28 1017 30.03 846 24.98 25.2 77.3 31 7.1 44.7 25.32 0.997
13:29 1017 30.03 846 24.98 25 77.1 28 5.6 42 25.21 0.993
13:30 1017 30.03 846 24.98 24.9 76.9 28 5.2 41.3 25.1 0.988
13:31 1017 30.03 846 24.98 25 77 30 6.3 43.4 25.26 0.994
13:32 1017 30.03 846 24.98 25.1 77.2 31 6.8 44.3 25.49 1.004
13:33 1017 30.03 846 24.98 25.3 77.6 33 8 46.4 25.61 1.008
13:34 1017 30.03 846 24.98 25.4 77.8 32 8 46.4 25.7 1.012
13:35 1017 30.03 846 24.98 25.5 77.9 25 4.3 39.8 25.71 1.012
13:36 1017 30.03 846 24.98 25.5 77.8 26 4.6 40.3 25.6 1.008
13:37 1017 30.03 846 24.98 25.5 77.9 31 7.2 45 25.72 1.013
13:38 1017 30.03 846 24.98 25.6 78.1 25 4.5 40.1 25.89 1.019
13:39 1017 30.03 846 24.98 25.7 78.2 28 6.1 43 25.99 1.023
13:40 1017 30.03 846 24.98 25.8 78.4 24 3.8 38.8 25.92 1.02
13:41 1017 30.03 846 24.98 25.6 78.1 27 5.3 41.6 25.69 1.011
13:42 1017 30.03 846 24.98 25.6 78 25 4.3 39.7 25.8 1.016
13:43 1017 30.03 846 24.98 25.7 78.3 26 5.1 41.2 26.03 1.025
13:44 1017 30.03 846 24.98 25.9 78.6 24 4.1 39.4 26.24 1.033
13:45 1017 30.03 846 24.98 25.8 78.5 27 5.6 42 26.14 1.029
13:46 1017 30.03 846 24.98 25.6 78 27 5.7 42.2 25.9 1.02
13:47 1017 30.03 846 24.98 25.5 77.8 31 7.3 45.2 25.86 1.018
13:48 1017 30.03 846 24.98 25.5 77.9 30 6.9 44.5 25.98 1.023
13:49 1017 30.03 846 24.98 25.6 78.1 26 4.9 40.8 26.06 1.026
13:50 1017 30.03 846 24.98 25.7 78.3 25 4.6 40.2 26.08 1.027
13:51 1017 30.03 846 24.98 25.7 78.3 26 5.3 41.5 26.01 1.024
13:52 1017 30.03 846 24.98 25.8 78.4 31 7.5 45.6 26.09 1.027
13:53 1017 30.03 846 24.98 25.8 78.5 32 8.2 46.7 26.06 1.026
13:54 1017 30.03 846 24.98 25.8 78.4 28 6 42.8 25.99 1.023
13:55 1017 30.03 846 24.98 25.7 78.3 27 5.6 42.1 25.93 1.021
13:56 1017 30.03 846 24.98 25.8 78.4 30 7.2 45 25.95 1.022
13:57 1017 30.03 846 24.98 25.9 78.6 25 4.4 40 26.11 1.028
13:58 1017 30.03 846 24.98 26 78.8 29 6.7 44 26.27 1.034
13:59 1017 30.03 846 24.98 26.1 78.9 28 6.6 43.9 26.38 1.039
14:00 1017 30.03 846 24.98 26.1 78.9 29 7 44.6 26.41 1.04
14:01 1017 30.03 846 24.98 26.1 79 31 7.7 45.9 26.44 1.041
14:02 1017 30.03 846 24.98 26.2 79.1 30 7.7 45.9 26.5 1.043
14:03 1017 30.03 846 24.98 26.1 79 27 6.2 43.1 26.45 1.041
14:04 1017 30.03 846 24.98 26.1 78.9 30 7.5 45.4 26.41 1.04
14:05 1017 30.03 846 24.98 26 78.7 25 5 41 26.31 1.036
14:06 1017 30.03 846 24.98 25.9 78.6 26 5.3 41.5 26.24 1.033
14:07 1017 30.03 846 24.98 26 78.8 29 6.9 44.5 26.41 1.04
14:08 1017 30.03 846 24.98 26.2 79.1 27 5.7 42.3 26.62 1.048
14:09 1017 30.03 846 24.98 26.4 79.5 24 4.5 40.1 26.77 1.054
14:10 1017 30.03 846 24.98 26.4 79.6 25 5.2 41.3 26.83 1.056
14:11 1017 30.03 846 24.98 26.5 79.7 29 7.2 44.9 26.96 1.061
14:12 1017 30.03 846 24.98 26.5 79.7 26 5.6 42 26.99 1.063
14:13 1017 30.03 846 24.98 26.4 79.6 25 5.1 41.2 27.01 1.063
14:14 1016 30 846 24.98 26.5 79.7 31 8.2 46.8 27.14 1.069
14:15 1016 30 845 24.95 26.6 79.9 25 5.4 41.8 27.19 1.07
14:16 1016 30 845 24.95 26.7 80 29 7.5 45.6 27.21 1.071
14:17 1016 30 845 24.95 26.5 79.8 26 5.9 42.5 27.07 1.066
14:18 1016 30 845 24.95 26.4 79.4 30 7.5 45.5 26.85 1.057
14:19 1016 30 846 24.98 26.4 79.5 28 6.7 44.1 26.86 1.057
14:20 1017 30.03 846 24.98 26.4 79.5 26 5.4 41.7 26.8 1.055
14:21 1017 30.03 846 24.98 26.2 79.2 27 6 42.8 26.65 1.049
14:22 1017 30.03 846 24.98 26.1 79.1 26 5.3 41.5 26.51 1.044
14:23 1017 30.03 846 24.98 26.1 78.9 25 4.8 40.6 26.48 1.043
14:24 1016 30 846 24.98 26.1 79 28 6.3 43.3 26.5 1.043
14:25 1016 30 846 24.98 26.3 79.3 23 3.7 38.7 26.68 1.05
14:26 1016 30 846 24.98 26.3 79.4 23 3.6 38.4 26.72 1.052
14:27 1016 30 846 24.98 26.3 79.3 23 3.8 38.8 26.62 1.048
14:28 1016 30 846 24.98 26.3 79.4 28 6.6 43.9 26.67 1.05
14:29 1016 30 846 24.98 26.4 79.5 27 6 42.7 26.77 1.054
14:30 1016 30 846 24.98 26.5 79.6 24 4.6 40.3 26.84 1.057
14:31 1016 30 846 24.98 26.5 79.7 24 4.4 39.9 26.93 1.06
14:32 1016 30 846 24.98 26.6 79.8 25 5.4 41.7 26.97 1.062
14:33 1016 30 846 24.98 26.6 79.9 27 6.4 43.4 27.02 1.064
14:34 1016 30 845 24.95 26.6 79.9 25 5.2 41.3 26.97 1.062
14:35 1016 30 846 24.98 26.5 79.8 28 6.7 44.1 26.88 1.058
14:36 1016 30 846 24.98 26.5 79.7 29 7.3 45.1 26.92 1.06
14:37 1016 30 846 24.98 26.6 79.9 29 7.3 45.1 27.01 1.063
14:38 1016 30 846 24.98 26.7 80.1 23 4.4 40 27.15 1.069
14:39 1016 30 846 24.98 26.7 80.1 26 5.9 42.6 27.06 1.065
14:40 1016 30 845 24.95 26.8 80.2 24 4.7 40.4 27.12 1.068
14:41 1016 30 845 24.95 26.8 80.3 22 3.4 38 27.19 1.07
14:42 1016 30 845 24.95 26.9 80.4 24 4.8 40.7 27.26 1.073
14:43 1016 30 845 24.95 26.9 80.5 22 3.8 38.9 27.29 1.074
14:44 1016 30 845 24.95 26.9 80.4 23 4.4 40 27.21 1.071
14:45 1016 30 845 24.95 26.8 80.2 23 4.2 39.5 27.19 1.07
14:46 1016 30 845 24.95 26.8 80.2 25 5.6 42.1 27.16 1.069
14:47 1016 30 845 24.95 26.9 80.3 23 4 39.2 27.25 1.073
14:48 1016 30 845 24.95 26.9 80.4 21 2.9 37.2 27.32 1.076
14:49 1016 30 845 24.95 26.9 80.4 25 5.8 42.4 27.3 1.075
14:50 1016 30 845 24.95 26.9 80.5 21 3 37.4 27.39 1.078
14:51 1016 30 845 24.95 26.9 80.5 24 5.2 41.4 27.41 1.079
14:52 1016 30 845 24.95 27.1 80.7 27 6.9 44.3 27.53 1.084
14:53 1016 30 845 24.95 27.2 80.9 23 4.8 40.6 27.62 1.087
14:54 1016 30 845 24.95 27.1 80.9 21 3.1 37.6 27.54 1.084
14:55 1016 30 845 24.95 27 80.6 22 3.7 38.7 27.4 1.079
14:56 1016 30 845 24.95 26.9 80.5 25 5.5 41.8 27.35 1.077
14:57 1016 30 845 24.95 27 80.6 24 5 41 27.51 1.083
14:58 1016 30 845 24.95 27.2 81 23 4.7 40.5 27.65 1.089
14:59 1016 30 845 24.95 27.3 81.1 22 3.9 39 27.64 1.088
15:00 1016 30 845 24.95 27.1 80.8 21 3.3 37.9 27.48 1.082
15:01 1016 30 845 24.95 26.9 80.5 23 4.3 39.8 27.37 1.078
15:02 1016 30 845 24.95 26.9 80.3 23 4.3 39.8 27.3 1.075
15:03 1016 30 845 24.95 26.9 80.4 28 7.1 44.8 27.33 1.076
15:04 1016 30 845 24.95 27 80.6 25 5.7 42.3 27.45 1.081
15:05 1016 30 845 24.95 27.1 80.8 22 3.8 38.9 27.52 1.083
15:06 1016 30 845 24.95 27.1 80.7 27 7 44.6 27.5 1.083
15:07 1016 30 845 24.95 27.1 80.8 23 4.5 40.1 27.53 1.084
15:08 1016 30 845 24.95 27.2 80.9 24 5.4 41.6 27.54 1.084
15:09 1016 30 845 24.95 27.2 80.9 29 7.9 46.3 27.58 1.086
15:10 1016 30 845 24.95 27.2 81 25 5.5 41.9 27.63 1.088
15:11 1016 30 845 24.95 27.3 81.1 27 7.1 44.8 27.7 1.091
15:12 1016 30 845 24.95 27.3 81.2 24 5.4 41.6 27.77 1.093
15:13 1016 30 845 24.95 27.3 81.1 24 5.5 41.9 27.77 1.093
15:14 1016 30 845 24.95 27.3 81.2 25 6.1 42.9 27.75 1.093
15:15 1016 30 845 24.95 27.4 81.3 24 5.6 42.1 27.87 1.097
15:16 1016 30 845 24.95 27.5 81.5 24 5.5 41.9 27.92 1.099
15:17 1016 30 845 24.95 27.5 81.5 23 5.1 41.2 27.9 1.098
15:18 1016 30 845 24.95 27.4 81.4 22 3.8 38.9 27.92 1.099
15:19 1016 30 845 24.95 27.4 81.2 28 7.3 45.2 27.83 1.096
15:20 1016 30 845 24.95 27.4 81.2 25 5.7 42.3 27.82 1.095
15:21 1016 30 845 24.95 27.4 81.3 24 5.5 41.9 27.81 1.095
15:22 1016 30 845 24.95 27.4 81.2 25 6 42.8 27.77 1.093
15:23 1016 30 845 24.95 27.4 81.2 22 4.1 39.4 27.81 1.095
15:24 1016 30 845 24.95 27.4 81.3 24 5.2 41.3 27.81 1.095
15:25 1016 30 845 24.95 27.4 81.3 25 5.8 42.5 27.78 1.094
15:26 1016 30 845 24.95 27.3 81.1 24 5.2 41.4 27.67 1.089
15:27 1016 30 845 24.95 27.2 81 22 4.1 39.4 27.6 1.087
15:28 1016 30 845 24.95 27.2 81 22 4.2 39.5 27.61 1.087
15:29 1016 30 845 24.95 27.3 81.1 22 3.9 39 27.58 1.086
15:30 1016 30 845 24.95 27.3 81.1 21 3.6 38.4 27.63 1.088
15:31 1016 30 845 24.95 27.2 81 19 1.7 35.1 27.6 1.087
15:32 1016 30 845 24.95 27.2 81 23 4.9 40.8 27.54 1.084
15:33 1016 30 845 24.95 27.2 81 22 4 39.2 27.61 1.087
15:34 1016 30 845 24.95 27.2 81 21 3 37.4 27.59 1.086
15:35 1016 30 845 24.95 27.1 80.8 24 4.8 40.7 27.46 1.081
15:36 1016 30 845 24.95 26.9 80.5 23 4.6 40.3 27.3 1.075
15:37 1016 30 845 24.95 26.8 80.2 21 2.7 36.9 27.11 1.067
15:38 1016 30 845 24.95 26.8 80.2 27 6.4 43.5 27.13 1.068
15:39 1016 30 845 24.95 26.8 80.2 24 5.1 41.2 27.13 1.068
15:40 1016 30 845 24.95 26.8 80.2 23 4.1 39.4 27.03 1.064
15:41 1016 30 845 24.95 26.8 80.2 22 3.5 38.3 27.02 1.064
15:42 1016 30 845 24.95 26.7 80.1 22 3.7 38.6 26.97 1.062
15:43 1016 30 845 24.95 26.5 79.8 25 5.4 41.8 26.76 1.054
15:44 1016 30 845 24.95 26.4 79.5 26 5.5 41.8 26.61 1.048
15:45 1016 30 845 24.95 26.3 79.3 24 4.2 39.6 26.5 1.043
15:46 1016 30 845 24.95 26.4 79.5 25 4.9 40.9 26.58 1.046
15:47 1016 30 845 24.95 26.5 79.8 23 4.2 39.5 26.78 1.054
15:48 1016 30 845 24.95 26.7 80.1 21 2.9 37.2 26.94 1.061
15:49 1016 30 845 24.95 26.9 80.4 26 6.1 43 27.09 1.067
15:50 1016 30 845 24.95 27 80.7 28 7.2 44.9 27.28 1.074
15:51 1016 30 845 24.95 27.2 80.9 23 4.3 39.7 27.34 1.076
15:52 1016 30 845 24.95 27.1 80.8 25 5.7 42.3 27.23 1.072
15:53 1016 30 845 24.95 27 80.5 27 6.7 44 27.12 1.068
15:54 1016 30 845 24.95 26.9 80.3 24 4.8 40.6 27.05 1.065
15:55 1016 30 845 24.95 26.8 80.3 26 5.9 42.7 27 1.063
15:56 1015 29.97 845 24.95 26.8 80.2 24 5 41 26.93 1.06
15:57 1015 29.97 845 24.95 26.7 80 28 6.7 44.1 26.81 1.056
15:58 1015 29.97 845 24.95 26.5 79.7 25 5.1 41.1 26.71 1.052
15:59 1015 29.97 845 24.95 26.4 79.5 24 4.3 39.7 26.55 1.045
16:00 1015 29.97 845 24.95 26.3 79.3 27 5.8 42.4 26.45 1.041
16:01 1015 29.97 845 24.95 26.1 79 23 3.5 38.4 26.31 1.036
16:02 1015 29.97 845 24.95 26 78.8 22 2.8 37.1 26.2 1.031
16:03 1015 29.97 845 24.95 26 78.7 25 4.5 40.1 26.24 1.033
16:04 1016 30 845 24.95 25.8 78.5 28 6.1 42.9 26.14 1.029
16:05 1016 30 845 24.95 25.6 78.1 27 5.4 41.7 25.9 1.02
16:06 1016 30 845 24.95 25.4 77.7 24 3.5 38.3 25.68 1.011
16:07 1016 30 845 24.95 25.3 77.6 28 5.9 42.5 25.58 1.007
16:08 1016 30 845 24.95 25.2 77.4 28 5.7 42.3 25.49 1.004
16:09 1016 30 845 24.95 25 77.1 28 5.7 42.3 25.3 0.996
16:10 1016 30 845 24.95 24.9 76.7 29 5.9 42.6 25.14 0.99
16:11 1016 30 845 24.95 24.7 76.4 26 4.4 39.9 24.96 0.983
16:12 1016 30 845 24.95 24.6 76.2 28 5.1 41.3 24.87 0.979
16:13 1016 30 845 24.95 24.6 76.2 28 4.9 40.8 24.88 0.98
16:14 1016 30 845 24.95 24.5 76.2 25 3.7 38.7 24.84 0.978
16:15 1016 30 845 24.95 24.6 76.3 29 5.4 41.8 24.91 0.981
16:16 1016 30 845 24.95 24.6 76.2 26 4 39.2 24.9 0.98
16:17 1016 30 845 24.95 24.6 76.2 30 6.1 43 24.91 0.981
16:18 1016 30 845 24.95 24.4 76 30 6.2 43.2 24.81 0.977
16:19 1016 30 845 24.95 24.3 75.7 32 6.7 44.1 24.67 0.971
16:20 1016 30 845 24.95 24.1 75.4 29 5.4 41.7 24.44 0.962
16:21 1016 30 845 24.95 24 75.3 31 6.1 43 24.37 0.959
16:22 1016 30 845 24.95 24 75.2 30 5.8 42.4 24.34 0.958
16:23 1016 30 845 24.95 24 75.2 29 5.3 41.6 24.3 0.957
16:24 1016 30 845 24.95 23.9 75.1 29 4.9 40.7 24.3 0.957
16:25 1016 30 845 24.95 24 75.2 30 5.7 42.2 24.3 0.957
16:26 1016 30 845 24.95 23.9 75 30 5.6 42.1 24.27 0.956
16:27 1016 30 845 24.95 23.9 75 31 6.2 43.1 24.2 0.953
16:28 1016 30 845 24.95 23.9 74.9 31 5.8 42.5 24.2 0.953
16:29 1016 30 845 24.95 23.8 74.8 30 5.2 41.3 24.11 0.949
16:30 1016 30 845 24.95 23.8 74.8 31 5.7 42.3 24.08 0.948
16:31 1016 30 845 24.95 23.8 74.8 31 6 42.8 24.07 0.948
16:32 1016 30 845 24.95 23.7 74.6 32 6.3 43.3 24.01 0.945
16:33 1016 30 845 24.95 23.5 74.4 33 6.4 43.5 23.91 0.941
16:34 1016 30 845 24.95 23.4 74.2 33 6.3 43.3 23.76 0.935
16:35 1016 30 846 24.98 23.3 74 31 5.3 41.5 23.68 0.932
16:36 1017 30.03 846 24.98 23.3 74 33 6.2 43.2 23.61 0.93
16:37 1017 30.03 847 25.01 23.1 73.5 35 6.9 44.4 23.43 0.922
16:38 1017 30.03 847 25.01 22.5 72.5 35 6.3 43.3 22.88 0.901
16:39 1018 30.06 847 25.01 21.7 71.1 38 6.8 44.2 22.04 0.868
16:40 1018 30.06 847 25.01 20.9 69.6 41 7.3 45.1 21.23 0.836
16:41 1018 30.06 847 25.01 20.1 68.2 45 7.8 46 20.47 0.806
16:42 1018 30.06 847 25.01 19.4 66.9 47 8 46.5 19.73 0.777
16:43 1018 30.06 847 25.01 18.9 66 49 8 46.4 19.24 0.757
16:44 1018 30.06 847 25.01 18.5 65.3 50 8.1 46.6 18.87 0.743
16:45 1018 30.06 847 25.01 18.2 64.7 51 7.9 46.2 18.53 0.73
16:46 1018 30.06 848 25.04 18 64.3 51 7.8 46.1 18.29 0.72
16:47 1019 30.09 848 25.04 17.7 63.8 54 8.4 47.1 17.99 0.708
16:48 1019 30.09 848 25.04 17.4 63.3 56 8.7 47.7 17.7 0.697
16:49 1019 30.09 848 25.04 17.1 62.8 59 9 48.2 17.48 0.688
16:50 1019 30.09 848 25.04 16.8 62.2 59 8.9 48.1 17.16 0.676
16:51 1019 30.09 848 25.04 16.6 61.9 61 9.1 48.5 16.94 0.667
16:52 1019 30.09 848 25.04 16.4 61.5 62 9.2 48.5 16.79 0.661
16:53 1019 30.09 848 25.04 16.3 61.3 61 8.8 47.8 16.65 0.656
16:54 1019 30.09 848 25.04 16.3 61.3 61 8.9 48 16.62 0.654
16:55 1019 30.09 848 25.04 16.2 61.1 63 9.3 48.7 16.54 0.651
16:56 1019 30.09 848 25.04 16 60.8 64 9.2 48.6 16.42 0.646
16:57 1019 30.09 849 25.07 15.9 60.6 65 9.4 48.9 16.31 0.642
16:58 1019 30.09 849 25.07 15.8 60.4 64 9.1 48.4 16.2 0.638
16:59 1019 30.09 849 25.07 15.7 60.3 64 9 48.2 16.13 0.635
17:00 1019 30.09 849 25.07 15.7 60.2 65 9.1 48.4 16.07 0.633
17:01 1020 30.12 849 25.07 15.6 60.1 63 8.7 47.7 16.02 0.631
17:02 1020 30.12 849 25.07 15.6 60.2 64 8.9 47.9 16.01 0.63
17:03 1020 30.12 849 25.07 15.6 60 65 9.1 48.3 15.95 0.628
17:04 1020 30.12 849 25.07 15.5 59.9 66 9.2 48.5 15.9 0.626
17:05 1020 30.12 849 25.07 15.4 59.6 66 9.1 48.3 15.78 0.621
17:06 1020 30.12 849 25.07 15.3 59.5 67 9.3 48.8 15.66 0.617
17:07 1020 30.12 849 25.07 15.2 59.3 67 9.2 48.5 15.55 0.612
17:08 1020 30.12 849 25.07 15 59 69 9.5 49.1 15.42 0.607
17:09 1020 30.12 849 25.07 14.8 58.6 70 9.5 49.1 15.2 0.598
17:10 1020 30.12 849 25.07 14.6 58.3 73 9.8 49.7 15.01 0.591
17:11 1020 30.12 849 25.07 14.4 58 72 9.5 49.1 14.81 0.583
17:12 1020 30.12 849 25.07 14.3 57.7 76 10.1 50.2 14.66 0.577
17:13 1020 30.12 849 25.07 14.1 57.4 75 9.8 49.7 14.51 0.571
17:14 1020 30.12 849 25.07 14 57.2 76 9.9 49.8 14.4 0.567
17:15 1020 30.12 849 25.07 13.9 57 76 9.7 49.5 14.32 0.564
17:16 1020 30.12 849 25.07 13.9 57 76 9.8 49.6 14.21 0.559
17:17 1020 30.12 849 25.07 13.8 56.8 77 9.8 49.6 14.18 0.558
17:18 1020 30.12 850 25.1 13.7 56.6 78 10 50 14.1 0.555
17:19 1020 30.12 850 25.1 13.6 56.5 79 10 49.9 13.99 0.551
17:20 1020 30.12 850 25.1 13.6 56.4 80 10.2 50.4 13.95 0.549
17:21 1020 30.12 850 25.1 13.5 56.2 79 10 49.9 13.81 0.544
17:22 1020 30.12 850 25.1 13.5 56.3 79 10 50 13.85 0.545
17:23 1021 30.15 850 25.1 13.4 56.1 80 10.1 50.2 13.84 0.545
17:24 1021 30.15 850 25.1 13.3 56 81 10.1 50.2 13.73 0.541
17:25 1021 30.15 850 25.1 13.3 55.9 81 10.1 50.1 13.67 0.538
17:26 1021 30.15 850 25.1 13.2 55.7 82 10.2 50.4 13.57 0.534
17:27 1021 30.15 850 25.1 13.1 55.6 82 10.2 50.4 13.51 0.532
17:28 1021 30.15 850 25.1 13.1 55.6 83 10.4 50.7 13.47 0.53
17:29 1021 30.15 850 25.1 13 55.4 83 10.2 50.4 13.38 0.527
17:30 1021 30.15 850 25.1 12.9 55.3 85 10.5 50.8 13.35 0.526
17:31 1021 30.15 850 25.1 12.9 55.2 85 10.3 50.6 13.3 0.524
17:32 1021 30.15 850 25.1 12.8 55.1 85 10.3 50.6 13.25 0.522
17:33 1021 30.15 850 25.1 12.9 55.1 85 10.5 50.8 13.25 0.522
17:34 1021 30.15 850 25.1 12.8 55.1 84 10.3 50.5 13.23 0.521
17:35 1021 30.15 850 25.1 12.9 55.2 84 10.4 50.6 13.26 0.522
17:36 1021 30.15 850 25.1 12.9 55.1 84 10.3 50.6 13.24 0.521
17:37 1021 30.15 850 25.1 12.9 55.1 84 10.3 50.5 13.23 0.521
17:38 1021 30.15 850 25.1 12.9 55.2 84 10.3 50.6 13.23 0.521
17:39 1021 30.15 850 25.1 12.9 55.2 85 10.4 50.8 13.24 0.521
17:40 1021 30.15 850 25.1 12.9 55.1 83 10.1 50.2 13.22 0.52
17:41 1021 30.15 850 25.1 12.9 55.2 84 10.2 50.4 13.24 0.521
17:42 1021 30.15 850 25.1 12.9 55.3 83 10.2 50.4 13.25 0.522
17:43 1021 30.15 850 25.1 12.9 55.2 84 10.3 50.5 13.27 0.522
17:44 1021 30.15 850 25.1 12.9 55.2 84 10.3 50.5 13.25 0.522
17:45 1021 30.15 850 25.1 12.9 55.2 85 10.4 50.7 13.21 0.52
17:46 1021 30.15 850 25.1 12.9 55.2 85 10.5 50.9 13.24 0.521
17:47 1021 30.15 850 25.1 12.9 55.2 84 10.3 50.6 13.24 0.521
17:48 1020 30.12 850 25.1 12.9 55.3 84 10.3 50.5 13.31 0.524
17:49 1020 30.12 850 25.1 13 55.4 84 10.4 50.8 13.29 0.523
17:50 1020 30.12 850 25.1 13 55.3 85 10.5 50.9 13.31 0.524
17:51 1020 30.12 850 25.1 13 55.3 85 10.6 51 13.29 0.523
17:52 1020 30.12 850 25.1 13 55.4 82 9.9 49.9 13.29 0.523
17:53 1020 30.12 850 25.1 13.1 55.6 83 10.2 50.4 13.4 0.528
17:54 1020 30.12 850 25.1 13.2 55.8 83 10.3 50.6 13.52 0.532
17:55 1020 30.12 849 25.07 13.3 55.9 79 9.8 49.6 13.56 0.534
17:56 1020 30.12 849 25.07 13.4 56.1 80 10.1 50.2 13.68 0.539
17:57 1020 30.12 849 25.07 13.4 56.1 80 10.1 50.2 13.72 0.54
17:58 1020 30.12 849 25.07 13.4 56.1 80 10 50.1 13.71 0.54
17:59 1020 30.12 849 25.07 13.5 56.3 80 10.1 50.2 13.79 0.543
18:00 1020 30.12 849 25.07 13.6 56.4 80 10.2 50.4 13.83 0.544
18:01 1020 30.12 849 25.07 13.5 56.3 80 10.2 50.4 13.83 0.544
18:02 1020 30.12 849 25.07 13.5 56.3 79 10.1 50.1 13.83 0.544
18:03 1020 30.12 849 25.07 13.6 56.4 80 10.2 50.3 13.86 0.546
18:04 1020 30.12 849 25.07 13.6 56.5 80 10.2 50.4 13.86 0.546
18:05 1020 30.12 849 25.07 13.6 56.5 80 10.2 50.3 13.88 0.546
18:06 1020 30.12 849 25.07 13.6 56.5 80 10.3 50.6 13.93 0.548
18:07 1020 30.12 849 25.07 13.6 56.5 81 10.5 51 13.96 0.55
18:08 1020 30.12 849 25.07 13.6 56.4 82 10.6 51 13.91 0.548
18:09 1020 30.12 849 25.07 13.6 56.5 81 10.5 50.8 13.94 0.549
18:10 1020 30.12 849 25.07 13.6 56.5 81 10.5 50.9 13.94 0.549
18:11 1020 30.12 849 25.07 13.6 56.6 82 10.6 51.2 13.94 0.549
18:12 1020 30.12 849 25.07 13.6 56.4 82 10.6 51 13.92 0.548
18:13 1020 30.12 849 25.07 13.6 56.5 82 10.7 51.2 13.93 0.548
18:14 1020 30.12 849 25.07 13.6 56.4 81 10.4 50.7 13.96 0.55
18:15 1020 30.12 849 25.07 13.6 56.6 81 10.4 50.7 14.02 0.552
18:16 1020 30.12 849 25.07 13.7 56.7 80 10.3 50.6 14.05 0.553
18:17 1020 30.12 849 25.07 13.8 56.8 81 10.6 51 14.12 0.556
18:18 1020 30.12 849 25.07 13.8 56.8 81 10.5 51 14.13 0.556
18:19 1020 30.12 849 25.07 13.9 56.9 81 10.6 51.2 14.17 0.558
18:20 1020 30.12 849 25.07 13.9 57 81 10.7 51.3 14.23 0.56
18:21 1020 30.12 849 25.07 13.9 57.1 82 10.9 51.5 14.25 0.561
18:22 1020 30.12 849 25.07 13.9 57.1 81 10.8 51.4 14.24 0.561
18:23 1020 30.12 849 25.07 14 57.1 80 10.6 51.1 14.28 0.562
18:24 1020 30.12 849 25.07 14 57.2 79 10.4 50.7 14.32 0.564
18:25 1020 30.12 849 25.07 14.1 57.3 80 10.6 51.1 14.37 0.566
18:26 1020 30.12 849 25.07 14.1 57.4 78 10.4 50.8 14.44 0.569
18:27 1020 30.12 849 25.07 14.1 57.4 79 10.5 51 14.44 0.569
18:28 1020 30.12 849 25.07 14.2 57.5 78 10.4 50.8 14.53 0.572
18:29 1020 30.12 849 25.07 14.3 57.7 80 10.9 51.6 14.6 0.575
18:30 1020 30.12 849 25.07 14.3 57.7 78 10.6 51.1 14.62 0.576
18:31 1020 30.12 849 25.07 14.3 57.7 79 10.7 51.3 14.64 0.576
18:32 1020 30.12 849 25.07 14.3 57.7 78 10.4 50.7 14.6 0.575
18:33 1020 30.12 849 25.07 14.3 57.7 80 10.8 51.4 14.62 0.576
18:34 1020 30.12 849 25.07 14.3 57.7 79 10.8 51.5 14.62 0.576
18:35 1019 30.09 849 25.07 14.3 57.7 79 10.6 51.1 14.6 0.575
18:36 1019 30.09 849 25.07 14.3 57.7 78 10.6 51.1 14.62 0.576
18:37 1019 30.09 849 25.07 14.3 57.7 80 11 51.7 14.64 0.576
18:38 1019 30.09 849 25.07 14.3 57.7 79 10.8 51.4 14.63 0.576
18:39 1019 30.09 849 25.07 14.2 57.6 79 10.7 51.2 14.63 0.576
18:40 1019 30.09 849 25.07 14.2 57.6 80 10.9 51.6 14.59 0.574
18:41 1019 30.09 849 25.07 14.3 57.7 78 10.6 51.1 14.63 0.576
18:42 1019 30.09 849 25.07 14.3 57.7 79 10.8 51.4 14.68 0.578
18:43 1019 30.09 848 25.04 14.3 57.8 78 10.6 51 14.68 0.578
18:44 1019 30.09 849 25.07 14.3 57.8 79 10.7 51.3 14.69 0.578
18:45 1019 30.09 848 25.04 14.3 57.8 80 10.9 51.6 14.69 0.578
18:46 1019 30.09 848 25.04 14.4 57.8 76 10.3 50.6 14.69 0.578
18:47 1019 30.09 848 25.04 14.4 57.9 79 10.9 51.5 14.82 0.583
18:48 1019 30.09 848 25.04 14.4 58 79 10.8 51.5 14.78 0.582
18:49 1019 30.09 848 25.04 14.4 58 78 10.6 51.1 14.73 0.58
18:50 1019 30.09 848 25.04 14.4 58 80 11 51.7 14.78 0.582
18:51 1019 30.09 848 25.04 14.4 57.8 80 11 51.8 14.7 0.579
18:52 1019 30.09 849 25.07 14.3 57.7 78 10.5 51 14.69 0.578
18:53 1019 30.09 849 25.07 14.3 57.7 78 10.6 51 14.67 0.578
18:54 1019 30.09 849 25.07 14.3 57.7 79 10.7 51.3 14.62 0.576
18:55 1019 30.09 849 25.07 14.2 57.6 80 10.8 51.4 14.6 0.575
18:56 1019 30.09 849 25.07 14.2 57.5 81 10.9 51.6 14.52 0.572
18:57 1019 30.09 848 25.04 14.1 57.3 81 10.9 51.6 14.48 0.57
18:58 1019 30.09 848 25.04 14 57.2 81 10.9 51.7 14.38 0.566
18:59 1019 30.09 848 25.04 14 57.2 82 10.9 51.7 14.4 0.567
19:00 1019 30.09 848 25.04 13.9 57.1 82 10.9 51.5 14.37 0.566
19:01 1019 30.09 848 25.04 13.9 57.1 82 10.9 51.6 14.36 0.565
19:02 1019 30.09 848 25.04 13.9 57.1 82 10.8 51.5 14.32 0.564
19:03 1019 30.09 848 25.04 13.9 57 80 10.6 51.1 14.29 0.563
19:04 1019 30.09 848 25.04 13.9 57 81 10.7 51.2 14.27 0.562
19:05 1019 30.09 848 25.04 13.9 56.9 81 10.7 51.3 14.24 0.561
19:06 1019 30.09 848 25.04 13.8 56.9 81 10.7 51.2 14.24 0.561
19:07 1019 30.09 848 25.04 13.8 56.9 81 10.7 51.3 14.2 0.559
19:08 1019 30.09 848 25.04 13.8 56.9 81 10.6 51.1 14.21 0.559
19:09 1019 30.09 848 25.04 13.8 56.9 80 10.5 50.9 14.17 0.558
19:10 1019 30.09 848 25.04 13.8 56.8 80 10.4 50.8 14.13 0.556
19:11 1019 30.09 848 25.04 13.8 56.8 81 10.6 51.1 14.15 0.557
19:12 1019 30.09 848 25.04 13.7 56.7 81 10.6 51.1 14.13 0.556
19:13 1019 30.09 848 25.04 13.7 56.6 81 10.5 51 14.09 0.555
19:14 1019 30.09 848 25.04 13.7 56.6 82 10.7 51.3 14.07 0.554
19:15 1019 30.09 848 25.04 13.6 56.6 82 10.6 51.1 14.05 0.553
19:16 1019 30.09 848 25.04 13.6 56.5 82 10.6 51.1 14.03 0.552
19:17 1019 30.09 848 25.04 13.7 56.6 79 10.2 50.4 14.05 0.553
19:18 1019 30.09 848 25.04 13.8 56.8 80 10.5 50.8 14.18 0.558
19:19 1019 30.09 848 25.04 13.9 57 77 10 50.1 14.25 0.561
19:20 1019 30.09 848 25.04 14 57.1 77 10.1 50.2 14.34 0.565
19:21 1019 30.09 848 25.04 14 57.2 78 10.3 50.5 14.36 0.565
19:22 1019 30.09 848 25.04 14 57.1 77 10 50 14.33 0.564
19:23 1019 30.09 848 25.04 14 57.2 76 9.9 49.9 14.36 0.565
19:24 1019 30.09 848 25.04 14.1 57.3 77 10 50.1 14.43 0.568
19:25 1019 30.09 848 25.04 14.1 57.4 76 10 50 14.51 0.571
19:26 1019 30.09 848 25.04 14.2 57.5 75 9.9 49.8 14.54 0.572
19:27 1018 30.06 848 25.04 14.2 57.6 75 9.9 49.9 14.54 0.572
19:28 1018 30.06 848 25.04 14.2 57.5 75 9.8 49.7 14.55 0.573
19:29 1018 30.06 848 25.04 14.2 57.6 76 10 50 14.56 0.573
19:30 1018 30.06 848 25.04 14.2 57.6 74 9.8 49.6 14.59 0.574
19:31 1018 30.06 848 25.04 14.2 57.6 75 9.8 49.7 14.57 0.574
19:32 1018 30.06 848 25.04 14.3 57.7 74 9.8 49.6 14.64 0.576
19:33 1018 30.06 848 25.04 14.3 57.8 74 9.8 49.6 14.7 0.579
19:34 1018 30.06 848 25.04 14.4 57.9 74 9.9 49.8 14.74 0.58
19:35 1018 30.06 848 25.04 14.4 57.9 73 9.7 49.4 14.75 0.581
19:36 1018 30.06 848 25.04 14.4 58 74 9.9 49.9 14.82 0.583
19:37 1018 30.06 848 25.04 14.5 58 75 10.2 50.4 14.85 0.585
19:38 1018 30.06 848 25.04 14.4 58 75 10 50 14.8 0.583
19:39 1018 30.06 848 25.04 14.4 58 75 10.1 50.2 14.76 0.581
19:40 1019 30.09 848 25.04 14.4 57.9 75 10 49.9 14.73 0.58
19:41 1019 30.09 848 25.04 14.4 57.9 75 10 50.1 14.76 0.581
19:42 1019 30.09 848 25.04 14.4 58 75 10.1 50.2 14.78 0.582
19:43 1019 30.09 848 25.04 14.5 58 73 9.8 49.7 14.84 0.584
19:44 1019 30.09 848 25.04 14.5 58.2 75 10.2 50.4 14.89 0.586
19:45 1019 30.09 848 25.04 14.6 58.2 73 9.7 49.5 14.93 0.588
19:46 1019 30.09 848 25.04 14.7 58.4 75 10.3 50.5 14.99 0.59
19:47 1019 30.09 848 25.04 14.6 58.4 74 10.2 50.3 15 0.591
19:48 1019 30.09 848 25.04 14.7 58.4 74 10.1 50.1 15.05 0.593
19:49 1019 30.09 848 25.04 14.7 58.5 73 10 50 15.05 0.593
19:50 1019 30.09 848 25.04 14.8 58.6 73 10 50 15.07 0.593
19:51 1019 30.09 848 25.04 14.8 58.6 74 10.1 50.3 15.14 0.596
19:52 1019 30.09 848 25.04 14.8 58.6 72 9.9 49.7 15.16 0.597
19:53 1019 30.09 848 25.04 14.8 58.6 72 9.9 49.8 15.15 0.596
19:54 1019 30.09 848 25.04 14.8 58.6 72 9.9 49.8 15.14 0.596
19:55 1019 30.09 848 25.04 14.8 58.6 73 10.1 50.2 15.12 0.595
19:56 1019 30.09 848 25.04 14.7 58.4 72 9.8 49.6 15.06 0.593
19:57 1019 30.09 848 25.04 14.7 58.5 73 9.9 49.8 15.08 0.594
19:58 1019 30.09 848 25.04 14.7 58.5 71 9.5 49 15.08 0.594
19:59 1019 30.09 848 25.04 14.8 58.6 72 9.9 49.8 15.12 0.595
20:00 1019 30.09 848 25.04 14.7 58.5 71 9.6 49.2 15.11 0.595
20:01 1019 30.09 848 25.04 14.8 58.6 71 9.6 49.2 15.12 0.595
20:02 1019 30.09 848 25.04 14.8 58.6 71 9.6 49.2 15.17 0.597
20:03 1019 30.09 848 25.04 14.8 58.7 69 9.3 48.8 15.2 0.598
20:04 1019 30.09 848 25.04 14.9 58.7 71 9.7 49.5 15.21 0.599
20:05 1019 30.09 848 25.04 14.8 58.6 72 9.8 49.7 15.16 0.597
20:06 1019 30.09 848 25.04 14.8 58.6 72 9.8 49.6 15.16 0.597
20:07 1019 30.09 848 25.04 14.7 58.5 71 9.6 49.3 15.1 0.594
20:08 1019 30.09 848 25.04 14.7 58.5 72 9.8 49.6 15.1 0.594
20:09 1019 30.09 848 25.04 14.7 58.5 71 9.6 49.2 15.1 0.594
20:10 1019 30.09 848 25.04 14.7 58.4 73 9.9 49.8 15.09 0.594
20:11 1019 30.09 848 25.04 14.6 58.3 72 9.7 49.4 15.01 0.591
20:12 1019 30.09 848 25.04 14.7 58.4 71 9.5 49.2 15.06 0.593
20:13 1019 30.09 848 25.04 14.7 58.5 71 9.5 49 15.11 0.595
20:14 1019 30.09 848 25.04 14.7 58.5 71 9.6 49.3 15.16 0.597
20:15 1019 30.09 848 25.04 14.7 58.5 71 9.5 49.2 15.15 0.596
20:16 1019 30.09 848 25.04 14.7 58.5 71 9.5 49.1 15.14 0.596
20:17 1019 30.09 848 25.04 14.7 58.5 71 9.5 49 15.11 0.595
20:18 1019 30.09 848 25.04 14.8 58.6 71 9.6 49.3 15.11 0.595
20:19 1019 30.09 848 25.04 14.7 58.5 71 9.5 49.1 15.13 0.596
20:20 1019 30.09 848 25.04 14.8 58.6 71 9.7 49.4 15.11 0.595
20:21 1019 30.09 848 25.04 14.7 58.5 72 9.7 49.5 15.07 0.593
20:22 1019 30.09 848 25.04 14.7 58.4 70 9.4 48.8 15.02 0.591
20:23 1019 30.09 848 25.04 14.7 58.4 72 9.7 49.5 15.07 0.593
20:24 1019 30.09 848 25.04 14.7 58.4 70 9.4 48.9 15.02 0.591
20:25 1019 30.09 848 25.04 14.7 58.4 72 9.6 49.3 15.02 0.591
20:26 1019 30.09 848 25.04 14.7 58.4 72 9.6 49.3 15 0.591
20:27 1019 30.09 848 25.04 14.6 58.3 72 9.6 49.2 14.97 0.589
20:28 1019 30.09 848 25.04 14.6 58.2 72 9.5 49.2 14.9 0.587
20:29 1019 30.09 848 25.04 14.5 58.1 73 9.7 49.4 14.86 0.585
20:30 1019 30.09 848 25.04 14.5 58 71 9.4 48.9 14.87 0.585
20:31 1019 30.09 848 25.04 14.6 58.2 72 9.6 49.4 14.93 0.588
20:32 1019 30.09 848 25.04 14.5 58.1 72 9.6 49.2 14.91 0.587
20:33 1019 30.09 848 25.04 14.5 58.1 73 9.7 49.4 14.86 0.585
20:34 1018 30.06 848 25.04 14.5 58 72 9.5 49.2 14.85 0.585
20:35 1018 30.06 848 25.04 14.5 58 72 9.6 49.2 14.81 0.583
20:36 1019 30.09 848 25.04 14.4 57.9 72 9.4 48.9 14.81 0.583
20:37 1019 30.09 848 25.04 14.5 58.1 71 9.3 48.8 14.9 0.587
20:38 1019 30.09 848 25.04 14.5 58.2 72 9.5 49.2 14.9 0.587
20:39 1019 30.09 848 25.04 14.6 58.2 71 9.5 49 14.91 0.587
20:40 1019 30.09 848 25.04 14.5 58.1 71 9.4 49 14.87 0.585
20:41 1018 30.06 848 25.04 14.5 58.1 71 9.4 48.9 14.85 0.585
20:42 1018 30.06 848 25.04 14.5 58.1 72 9.5 49.1 14.82 0.583
20:43 1018 30.06 848 25.04 14.4 57.9 71 9.3 48.8 14.8 0.583
20:44 1018 30.06 848 25.04 14.4 58 72 9.6 49.2 14.74 0.58
20:45 1018 30.06 848 25.04 14.3 57.7 73 9.6 49.3 14.7 0.579
20:46 1018 30.06 848 25.04 14.2 57.5 73 9.5 49.2 14.52 0.572
20:47 1018 30.06 848 25.04 14.1 57.4 74 9.5 49.2 14.47 0.57
20:48 1018 30.06 848 25.04 14 57.3 74 9.5 49.1 14.42 0.568
20:49 1018 30.06 848 25.04 14 57.2 74 9.4 49 14.35 0.565
20:50 1018 30.06 848 25.04 14 57.1 74 9.4 48.8 14.36 0.565
20:51 1019 30.09 848 25.04 14 57.1 74 9.4 48.9 14.36 0.565
20:52 1019 30.09 848 25.04 13.9 57.1 74 9.5 49 14.34 0.565
20:53 1019 30.09 848 25.04 13.9 57 74 9.4 49 14.24 0.561
20:54 1019 30.09 848 25.04 13.9 56.9 74 9.3 48.7 14.23 0.56
20:55 1019 30.09 848 25.04 13.8 56.9 75 9.5 49.1 14.22 0.56
20:56 1019 30.09 848 25.04 13.7 56.7 76 9.6 49.2 14.15 0.557
20:57 1018 30.06 848 25.04 13.7 56.6 75 9.5 49 14.05 0.553
20:58 1019 30.09 848 25.04 13.6 56.5 76 9.4 49 14 0.551
20:59 1018 30.06 848 25.04 13.6 56.6 75 9.3 48.8 14.02 0.552
21:00 1018 30.06 848 25.04 13.7 56.7 75 9.5 49 14.07 0.554
21:01 1018 30.06 848 25.04 13.7 56.7 76 9.6 49.2 14.02 0.552
21:02 1018 30.06 848 25.04 13.7 56.6 76 9.6 49.3 14 0.551
21:03 1018 30.06 848 25.04 13.5 56.4 77 9.5 49.2 13.95 0.549
21:04 1018 30.06 848 25.04 13.5 56.4 77 9.6 49.2 13.92 0.548
21:05 1018 30.06 848 25.04 13.6 56.4 77 9.6 49.2 13.95 0.549
21:06 1019 30.09 848 25.04 13.6 56.5 76 9.5 49.2 13.96 0.55
21:07 1019 30.09 848 25.04 13.6 56.5 76 9.5 49 13.94 0.549
21:08 1019 30.09 848 25.04 13.6 56.5 76 9.5 49.1 13.98 0.55
21:09 1019 30.09 848 25.04 13.7 56.6 75 9.4 49 14.04 0.553
21:10 1019 30.09 848 25.04 13.7 56.7 76 9.6 49.2 14.03 0.552
21:11 1019 30.09 848 25.04 13.8 56.8 75 9.4 48.9 14.08 0.554
21:12 1019 30.09 848 25.04 13.8 56.8 75 9.4 49 14.16 0.557
21:13 1019 30.09 848 25.04 13.9 56.9 75 9.5 49.1 14.21 0.559
21:14 1019 30.09 848 25.04 13.8 56.9 75 9.5 49.1 14.22 0.56
21:15 1019 30.09 848 25.04 13.8 56.9 75 9.5 49.1 14.13 0.556
21:16 1019 30.09 848 25.04 13.8 56.8 76 9.6 49.2 14.14 0.557
21:17 1019 30.09 848 25.04 13.7 56.7 76 9.5 49.2 14.09 0.555
21:18 1019 30.09 848 25.04 13.6 56.6 76 9.5 49.2 13.98 0.55
21:19 1019 30.09 848 25.04 13.6 56.4 77 9.6 49.3 13.96 0.55
21:20 1019 30.09 848 25.04 13.5 56.3 77 9.5 49.2 13.87 0.546
21:21 1019 30.09 848 25.04 13.5 56.2 76 9.4 49 13.84 0.545
21:22 1019 30.09 848 25.04 13.5 56.4 76 9.5 49 13.85 0.545
21:23 1019 30.09 848 25.04 13.5 56.3 76 9.5 49.1 13.88 0.546
21:24 1019 30.09 848 25.04 13.6 56.4 76 9.5 49.1 13.9 0.547
21:25 1019 30.09 848 25.04 13.6 56.4 76 9.4 49 13.89 0.547
21:26 1019 30.09 848 25.04 13.6 56.5 76 9.4 49 13.93 0.548
21:27 1019 30.09 848 25.04 13.6 56.4 77 9.6 49.4 13.94 0.549
21:28 1019 30.09 848 25.04 13.4 56.1 78 9.7 49.4 13.82 0.544
21:29 1019 30.09 848 25.04 13.3 56 78 9.7 49.4 13.72 0.54
21:30 1019 30.09 848 25.04 13.3 55.9 79 9.8 49.6 13.69 0.539
21:31 1019 30.09 848 25.04 13.2 55.7 80 9.7 49.5 13.54 0.533
21:32 1019 30.09 848 25.04 13 55.4 80 9.7 49.4 13.47 0.53
21:33 1019 30.09 848 25.04 13 55.4 80 9.7 49.4 13.42 0.528
21:34 1019 30.09 848 25.04 13 55.3 80 9.7 49.4 13.35 0.526
21:35 1019 30.09 848 25.04 12.9 55.3 80 9.7 49.4 13.26 0.522
21:36 1019 30.09 848 25.04 12.9 55.2 80 9.6 49.3 13.28 0.523
21:37 1019 30.09 848 25.04 12.9 55.2 80 9.6 49.2 13.23 0.521
21:38 1019 30.09 848 25.04 12.9 55.3 80 9.6 49.2 13.32 0.524
21:39 1019 30.09 848 25.04 12.9 55.3 80 9.6 49.3 13.29 0.523
21:40 1019 30.09 848 25.04 12.9 55.2 81 9.7 49.4 13.28 0.523
21:41 1019 30.09 848 25.04 12.8 55.1 81 9.6 49.3 13.2 0.52
21:42 1019 30.09 848 25.04 12.8 55.1 81 9.7 49.4 13.2 0.52
21:43 1019 30.09 848 25.04 12.8 55.1 81 9.7 49.4 13.22 0.52
21:44 1019 30.09 848 25.04 12.8 55.1 81 9.7 49.4 13.21 0.52
21:45 1019 30.09 848 25.04 12.8 55 81 9.7 49.5 13.18 0.519
21:46 1019 30.09 848 25.04 12.8 55 82 9.8 49.6 13.1 0.516
21:47 1019 30.09 848 25.04 12.7 54.8 82 9.7 49.4 13.06 0.514
21:48 1019 30.09 848 25.04 12.7 54.8 82 9.7 49.4 13.03 0.513
21:49 1019 30.09 848 25.04 12.6 54.7 82 9.7 49.5 12.97 0.511
21:50 1019 30.09 848 25.04 12.6 54.6 82 9.6 49.4 12.94 0.509
21:51 1019 30.09 848 25.04 12.5 54.5 83 9.6 49.4 12.93 0.509
21:52 1019 30.09 848 25.04 12.5 54.5 82 9.5 49.1 12.86 0.506
21:53 1019 30.09 848 25.04 12.6 54.7 81 9.5 49.1 12.96 0.51
21:54 1019 30.09 848 25.04 12.7 54.8 80 9.4 48.9 13.05 0.514
21:55 1019 30.09 848 25.04 12.9 55.1 80 9.4 49 13.17 0.519
21:56 1019 30.09 848 25.04 13 55.3 79 9.4 49 13.24 0.521
21:57 1019 30.09 848 25.04 13 55.4 79 9.4 48.9 13.29 0.523
21:58 1019 30.09 848 25.04 13 55.4 78 9.4 48.8 13.34 0.525
21:59 1019 30.09 848 25.04 13.1 55.5 78 9.3 48.8 13.38 0.527
22:00 1019 30.09 848 25.04 13.1 55.5 78 9.3 48.8 13.36 0.526
22:01 1019 30.09 848 25.04 13.1 55.5 78 9.3 48.7 13.4 0.528
22:02 1019 30.09 848 25.04 13.1 55.5 78 9.3 48.7 13.37 0.526
22:03 1019 30.09 848 25.04 13.1 55.5 78 9.3 48.7 13.38 0.527
22:04 1019 30.09 848 25.04 13 55.5 78 9.2 48.6 13.33 0.525
22:05 1019 30.09 848 25.04 13 55.4 78 9.2 48.6 13.35 0.526
22:06 1019 30.09 848 25.04 13 55.5 77 9.2 48.6 13.36 0.526
22:07 1019 30.09 848 25.04 13 55.4 77 9.2 48.5 13.36 0.526
22:08 1019 30.09 848 25.04 13 55.4 78 9.2 48.6 13.28 0.523
22:09 1019 30.09 848 25.04 12.9 55.2 78 9.2 48.6 13.25 0.522
22:10 1019 30.09 848 25.04 12.9 55.3 77 9.1 48.4 13.24 0.521
22:11 1019 30.09 848 25.04 13 55.3 77 9.1 48.4 13.24 0.521
22:12 1019 30.09 848 25.04 12.9 55.2 77 9.1 48.3 13.23 0.521
22:13 1019 30.09 848 25.04 12.8 55.1 78 9.2 48.5 13.13 0.517
22:14 1019 30.09 848 25.04 12.7 54.9 78 9.1 48.3 13.08 0.515
22:15 1019 30.09 848 25.04 12.6 54.7 79 9.2 48.5 12.94 0.509
22:16 1019 30.09 848 25.04 12.4 54.3 80 9.1 48.4 12.79 0.504
22:17 1019 30.09 848 25.04 12.3 54.1 81 9.1 48.4 12.67 0.499
22:18 1019 30.09 848 25.04 12.1 53.8 82 9.1 48.4 12.52 0.493
22:19 1019 30.09 848 25.04 12 53.6 82 9.1 48.3 12.38 0.487
22:20 1019 30.09 848 25.04 11.9 53.4 83 9 48.3 12.31 0.485
22:21 1019 30.09 848 25.04 11.9 53.3 82 8.9 48 12.27 0.483
22:22 1019 30.09 848 25.04 12 53.7 81 8.9 48.1 12.33 0.485
22:23 1019 30.09 848 25.04 12.1 53.7 81 8.9 48 12.36 0.487
22:24 1019 30.09 848 25.04 12 53.6 81 8.9 48 12.32 0.485
22:25 1019 30.09 848 25.04 12 53.5 81 8.8 47.8 12.29 0.484
22:26 1019 30.09 848 25.04 12 53.6 80 8.8 47.8 12.32 0.485
22:27 1019 30.09 848 25.04 12.1 53.8 79 8.7 47.6 12.31 0.485
22:28 1019 30.09 848 25.04 12.2 54 79 8.7 47.6 12.42 0.489
22:29 1019 30.09 848 25.04 12.2 54 79 8.7 47.7 12.41 0.489
22:30 1019 30.09 848 25.04 12.2 54 79 8.7 47.7 12.43 0.489
22:31 1019 30.09 848 25.04 12.2 53.9 80 8.7 47.7 12.41 0.489
22:32 1019 30.09 848 25.04 12.1 53.7 80 8.7 47.7 12.35 0.486
22:33 1019 30.09 848 25.04 12 53.6 80 8.7 47.7 12.32 0.485
22:34 1019 30.09 848 25.04 12 53.5 81 8.8 47.8 12.28 0.483
22:35 1019 30.09 848 25.04 12 53.5 81 8.8 47.8 12.27 0.483
22:36 1019 30.09 848 25.04 11.9 53.5 81 8.8 47.8 12.24 0.482
22:37 1019 30.09 848 25.04 11.9 53.4 81 8.8 47.9 12.19 0.48
22:38 1019 30.09 848 25.04 11.8 53.3 81 8.7 47.7 12.15 0.478
22:39 1019 30.09 848 25.04 11.8 53.2 82 8.8 47.8 12.11 0.477
22:40 1019 30.09 848 25.04 11.8 53.3 81 8.7 47.7 12.25 0.482
22:41 1019 30.09 848 25.04 11.9 53.5 81 8.7 47.7 12.33 0.485
22:42 1019 30.09 848 25.04 12 53.6 80 8.7 47.7 12.42 0.489
22:43 1019 30.09 848 25.04 12.2 53.9 80 8.8 47.8 12.54 0.494
22:44 1019 30.09 848 25.04 12.2 54 80 8.8 47.9 12.51 0.493
22:45 1019 30.09 848 25.04 12.2 53.9 81 9 48.1 12.47 0.491
22:46 1019 30.09 848 25.04 12.1 53.7 81 8.9 48 12.34 0.486
22:47 1019 30.09 848 25.04 12 53.5 81 8.9 48 12.25 0.482
22:48 1019 30.09 848 25.04 11.9 53.4 82 8.9 48 12.23 0.481
22:49 1019 30.09 848 25.04 11.9 53.4 82 8.9 48 12.23 0.481
22:50 1019 30.09 848 25.04 11.9 53.4 82 8.9 48 12.28 0.483
22:51 1019 30.09 848 25.04 12 53.6 81 8.9 48 12.36 0.487
22:52 1019 30.09 848 25.04 12 53.6 81 8.9 48 12.39 0.488
22:53 1019 30.09 848 25.04 12 53.6 81 8.9 48 12.36 0.487
22:54 1019 30.09 848 25.04 11.9 53.4 82 8.9 48.1 12.25 0.482
22:55 1019 30.09 848 25.04 11.8 53.2 83 9 48.2 12.13 0.478
22:56 1019 30.09 848 25.04 11.6 53 83 8.9 48.1 12.05 0.474
22:57 1019 30.09 848 25.04 11.6 52.9 84 9 48.1 11.99 0.472
22:58 1019 30.09 848 25.04 11.6 52.8 84 9 48.2 11.96 0.471
22:59 1019 30.09 848 25.04 11.6 52.8 84 9.1 48.3 11.91 0.469
23:00 1019 30.09 848 25.04 11.5 52.8 85 9.1 48.3 11.91 0.469
23:01 1019 30.09 848 25.04 11.5 52.7 85 9.1 48.3 11.87 0.467
23:02 1019 30.09 849 25.07 11.5 52.8 85 9.1 48.4 11.88 0.468
23:03 1019 30.09 848 25.04 11.5 52.7 85 9.1 48.4 11.87 0.467
23:04 1019 30.09 849 25.07 11.5 52.7 85 9.1 48.4 11.85 0.467
23:05 1019 30.09 849 25.07 11.5 52.6 86 9.1 48.4 11.78 0.464
23:06 1019 30.09 849 25.07 11.4 52.6 86 9.1 48.4 11.81 0.465
23:07 1019 30.09 849 25.07 11.4 52.6 86 9.2 48.5 11.8 0.465
23:08 1019 30.09 848 25.04 11.4 52.6 86 9.1 48.5 11.82 0.465
23:09 1019 30.09 848 25.04 11.5 52.7 86 9.2 48.5 11.86 0.467
23:10 1019 30.09 848 25.04 11.6 52.8 85 9.1 48.5 11.87 0.467
23:11 1019 30.09 848 25.04 11.7 53.1 84 9.2 48.5 12.01 0.473
23:12 1019 30.09 848 25.04 11.9 53.3 83 9.1 48.4 12.12 0.477
23:13 1019 30.09 848 25.04 11.9 53.5 83 9.2 48.6 12.18 0.48
23:14 1019 30.09 848 25.04 12 53.5 84 9.3 48.7 12.19 0.48
23:15 1019 30.09 848 25.04 11.9 53.5 84 9.3 48.7 12.22 0.481
23:16 1019 30.09 848 25.04 11.9 53.4 84 9.3 48.7 12.21 0.481
23:17 1019 30.09 848 25.04 12 53.5 84 9.3 48.7 12.26 0.483
23:18 1019 30.09 848 25.04 11.9 53.5 84 9.3 48.7 12.24 0.482
23:19 1019 30.09 848 25.04 12 53.5 84 9.3 48.7 12.27 0.483
23:20 1019 30.09 848 25.04 12 53.5 83 9.3 48.7 12.27 0.483
23:21 1019 30.09 848 25.04 12 53.6 83 9.3 48.7 12.31 0.485
23:22 1019 30.09 848 25.04 12 53.6 84 9.3 48.7 12.32 0.485
23:23 1019 30.09 848 25.04 12 53.6 84 9.3 48.8 12.3 0.484
23:24 1019 30.09 848 25.04 12 53.6 84 9.3 48.8 12.24 0.482
23:25 1019 30.09 848 25.04 11.9 53.5 83 9.2 48.6 12.26 0.483
23:26 1019 30.09 848 25.04 11.9 53.5 83 9.1 48.4 12.24 0.482
23:27 1019 30.09 848 25.04 12 53.6 83 9.1 48.5 12.32 0.485
23:28 1019 30.09 848 25.04 12.1 53.8 82 9.1 48.4 12.38 0.487
23:29 1019 30.09 848 25.04 12.1 53.8 82 9.1 48.4 12.43 0.489
23:30 1019 30.09 848 25.04 12.2 53.9 81 9.1 48.4 12.51 0.493
23:31 1019 30.09 848 25.04 12.3 54.1 81 9.2 48.5 12.56 0.494
23:32 1019 30.09 848 25.04 12.3 54.1 81 9.2 48.5 12.58 0.495
23:33 1019 30.09 848 25.04 12.2 54 82 9.2 48.6 12.59 0.496
23:34 1019 30.09 848 25.04 12.2 54 82 9.3 48.7 12.54 0.494
23:35 1019 30.09 848 25.04 12.2 53.9 82 9.2 48.6 12.5 0.492
23:36 1019 30.09 848 25.04 12.2 53.9 82 9.2 48.6 12.49 0.492
23:37 1019 30.09 848 25.04 12.2 53.9 82 9.2 48.5 12.53 0.493
23:38 1019 30.09 848 25.04 12.2 53.9 82 9.3 48.7 12.49 0.492
23:39 1019 30.09 848 25.04 12.1 53.8 83 9.3 48.7 12.45 0.49
23:40 1019 30.09 848 25.04 12.1 53.8 83 9.3 48.7 12.42 0.489
23:41 1019 30.09 848 25.04 12.1 53.7 83 9.3 48.7 12.39 0.488
23:42 1019 30.09 848 25.04 12.1 53.7 83 9.2 48.6 12.37 0.487
23:43 1019 30.09 848 25.04 12.1 53.7 82 9.2 48.5 12.37 0.487
23:44 1019 30.09 848 25.04 12.1 53.7 82 9.1 48.4 12.41 0.489
23:45 1019 30.09 848 25.04 12.1 53.8 82 9.1 48.4 12.49 0.492
23:46 1019 30.09 848 25.04 12.2 53.9 82 9.1 48.4 12.52 0.493
23:47 1019 30.09 848 25.04 12.2 54 81 9.1 48.4 12.55 0.494
23:48 1019 30.09 848 25.04 12.2 54 81 9 48.3 12.59 0.496
23:49 1019 30.09 848 25.04 12.3 54.1 80 9 48.3 12.65 0.498
23:50 1019 30.09 848 25.04 12.3 54.2 80 9 48.2 12.67 0.499
23:51 1019 30.09 848 25.04 12.4 54.3 80 9.1 48.4 12.68 0.499
23:52 1019 30.09 848 25.04 12.4 54.2 81 9.2 48.5 12.67 0.499
23:53 1019 30.09 848 25.04 12.3 54.1 81 9.1 48.4 12.61 0.496
23:54 1019 30.09 848 25.04 12.2 53.9 81 9 48.1 12.55 0.494
23:55 1019 30.09 848 25.04 12.2 54 80 8.9 48 12.58 0.495
23:56 1019 30.09 848 25.04 12.3 54.2 79 8.7 47.7 12.72 0.501
23:57 1019 30.09 848 25.04 12.5 54.5 78 8.8 47.8 12.84 0.506
23:58 1019 30.09 848 25.04 12.6 54.7 77 8.6 47.5 12.99 0.511
23:59 1019 30.09 848 25.04 12.7 54.9 77 8.8 47.8 13.12 0.517
24:00 1019 30.09 848 25.04 12.8 55 77 8.9 48 13.15 0.518